<?xml version="1.0" encoding="UTF-8" standalone="no" ?>
<gpx xmlns="http://www.topografix.com/GPX/1/1" xmlns:xsi="http://www.w3.org/2001/XMLSchema-instance" xsi:schemaLocation="http://www.topografix.com/GPX/1/1 http://www.topografix.com/GPX/1/1/gpx.xsd" version="1.1" creator="VisuGPX - https://www.visugpx.com">
  <metadata>
    <name>VTT le 12 mai 2019</name>
    <desc><![CDATA[VTT le 12 mai 2019
]]></desc>
  </metadata>
  <trk>
    <name><![CDATA[2019-03-10-VTT_FRED_LES BATAILLOLES]]></name>
    <trkseg>
      <trkpt lat="43.43961" lon="5.86025">
        <ele>391.87</ele>
        <time>2019-02-24T11:00:32Z</time>
      </trkpt>
      <trkpt lat="43.43961" lon="5.86025">
        <ele>391.87</ele>
        <time>2019-02-24T11:00:33Z</time>
      </trkpt>
      <trkpt lat="43.43961" lon="5.86023">
        <ele>391.87</ele>
        <time>2019-02-24T11:00:36Z</time>
      </trkpt>
      <trkpt lat="43.43901" lon="5.86018">
        <ele>367.36</ele>
        <time>2019-02-24T11:03:48Z</time>
      </trkpt>
      <trkpt lat="43.43959" lon="5.8603">
        <ele>367.36</ele>
        <time>2019-02-24T11:03:59Z</time>
      </trkpt>
      <trkpt lat="43.43966" lon="5.86028">
        <ele>291.42</ele>
        <time>2019-03-03T16:53:21Z</time>
      </trkpt>
      <trkpt lat="43.43959" lon="5.86023">
        <ele>295.74</ele>
        <time>2019-03-03T16:53:30Z</time>
      </trkpt>
      <trkpt lat="43.43958" lon="5.86023">
        <ele>300.07</ele>
        <time>2019-03-03T16:53:32Z</time>
      </trkpt>
      <trkpt lat="43.43957" lon="5.86023">
        <ele>303.91</ele>
        <time>2019-03-03T16:53:34Z</time>
      </trkpt>
      <trkpt lat="43.43957" lon="5.86023">
        <ele>307.28</ele>
        <time>2019-03-03T16:53:35Z</time>
      </trkpt>
      <trkpt lat="43.43955" lon="5.86024">
        <ele>310.64</ele>
        <time>2019-03-03T16:53:37Z</time>
      </trkpt>
      <trkpt lat="43.43955" lon="5.86024">
        <ele>310.64</ele>
        <time>2019-03-03T16:53:38Z</time>
      </trkpt>
      <trkpt lat="43.43955" lon="5.86023">
        <ele>313.53</ele>
        <time>2019-03-03T16:53:40Z</time>
      </trkpt>
      <trkpt lat="43.43955" lon="5.86023">
        <ele>317.85</ele>
        <time>2019-03-03T16:53:43Z</time>
      </trkpt>
      <trkpt lat="43.43955" lon="5.86022">
        <ele>321.7</ele>
        <time>2019-03-03T16:53:46Z</time>
      </trkpt>
      <trkpt lat="43.43955" lon="5.86022">
        <ele>325.06</ele>
        <time>2019-03-03T16:53:49Z</time>
      </trkpt>
      <trkpt lat="43.43955" lon="5.86022">
        <ele>328.43</ele>
        <time>2019-03-03T16:53:52Z</time>
      </trkpt>
      <trkpt lat="43.43956" lon="5.86023">
        <ele>332.75</ele>
        <time>2019-03-03T16:53:56Z</time>
      </trkpt>
      <trkpt lat="43.43956" lon="5.86023">
        <ele>332.75</ele>
        <time>2019-03-03T16:53:57Z</time>
      </trkpt>
      <trkpt lat="43.43957" lon="5.86023">
        <ele>334.68</ele>
        <time>2019-03-03T16:53:59Z</time>
      </trkpt>
      <trkpt lat="43.43958" lon="5.86023">
        <ele>339</ele>
        <time>2019-03-03T16:54:04Z</time>
      </trkpt>
      <trkpt lat="43.43958" lon="5.86023">
        <ele>339</ele>
        <time>2019-03-03T16:54:05Z</time>
      </trkpt>
      <trkpt lat="43.43959" lon="5.86023">
        <ele>339.96</ele>
        <time>2019-03-03T16:54:07Z</time>
      </trkpt>
      <trkpt lat="43.4396" lon="5.86023">
        <ele>343.33</ele>
        <time>2019-03-03T16:54:13Z</time>
      </trkpt>
      <trkpt lat="43.43959" lon="5.86024">
        <ele>346.69</ele>
        <time>2019-03-03T16:54:21Z</time>
      </trkpt>
      <trkpt lat="43.43961" lon="5.86027">
        <ele>349.58</ele>
        <time>2019-03-03T16:54:30Z</time>
      </trkpt>
      <trkpt lat="43.43959" lon="5.86029">
        <ele>352.94</ele>
        <time>2019-03-03T16:54:47Z</time>
      </trkpt>
      <trkpt lat="43.43962" lon="5.86031">
        <ele>355.34</ele>
        <time>2019-03-03T16:55:20Z</time>
      </trkpt>
      <trkpt lat="43.4396" lon="5.86028">
        <ele>355.83</ele>
        <time>2019-03-03T16:55:52Z</time>
      </trkpt>
      <trkpt lat="43.43959" lon="5.86025">
        <ele>355.83</ele>
        <time>2019-03-03T16:56:11Z</time>
      </trkpt>
      <trkpt lat="43.43957" lon="5.86026">
        <ele>355.83</ele>
        <time>2019-03-03T16:56:39Z</time>
      </trkpt>
      <trkpt lat="43.43961" lon="5.86021">
        <ele>355.83</ele>
        <time>2019-03-03T16:57:12Z</time>
      </trkpt>
      <trkpt lat="43.4396" lon="5.86022">
        <ele>355.83</ele>
        <time>2019-03-03T16:57:38Z</time>
      </trkpt>
      <trkpt lat="43.43959" lon="5.86021">
        <ele>355.83</ele>
        <time>2019-03-03T16:58:10Z</time>
      </trkpt>
      <trkpt lat="43.43962" lon="5.86021">
        <ele>355.83</ele>
        <time>2019-03-03T16:58:40Z</time>
      </trkpt>
      <trkpt lat="43.4396" lon="5.86024">
        <ele>355.83</ele>
        <time>2019-03-03T16:59:11Z</time>
      </trkpt>
      <trkpt lat="43.43959" lon="5.86025">
        <ele>355.83</ele>
        <time>2019-03-03T16:59:38Z</time>
      </trkpt>
      <trkpt lat="43.4396" lon="5.86026">
        <ele>355.83</ele>
        <time>2019-03-03T16:59:59Z</time>
      </trkpt>
      <trkpt lat="43.43955" lon="5.86031">
        <ele>356.31</ele>
        <time>2019-03-03T17:00:21Z</time>
      </trkpt>
      <trkpt lat="43.43958" lon="5.86029">
        <ele>356.31</ele>
        <time>2019-03-03T17:00:45Z</time>
      </trkpt>
      <trkpt lat="43.43957" lon="5.86029">
        <ele>356.31</ele>
        <time>2019-03-03T17:01:11Z</time>
      </trkpt>
      <trkpt lat="43.43957" lon="5.86028">
        <ele>356.31</ele>
        <time>2019-03-03T17:01:32Z</time>
      </trkpt>
      <trkpt lat="43.4396" lon="5.86025">
        <ele>356.31</ele>
        <time>2019-03-03T17:01:51Z</time>
      </trkpt>
      <trkpt lat="43.43959" lon="5.86018">
        <ele>356.79</ele>
        <time>2019-03-03T17:05:36Z</time>
      </trkpt>
      <trkpt lat="43.43961" lon="5.86025">
        <ele>356.79</ele>
        <time>2019-03-03T17:06:09Z</time>
      </trkpt>
      <trkpt lat="43.4396" lon="5.86022">
        <ele>356.79</ele>
        <time>2019-03-03T17:06:41Z</time>
      </trkpt>
      <trkpt lat="43.43959" lon="5.8602">
        <ele>356.79</ele>
        <time>2019-03-03T17:07:13Z</time>
      </trkpt>
      <trkpt lat="43.4396" lon="5.86017">
        <ele>356.79</ele>
        <time>2019-03-03T17:07:41Z</time>
      </trkpt>
      <trkpt lat="43.4396" lon="5.86022">
        <ele>356.79</ele>
        <time>2019-03-03T17:08:06Z</time>
      </trkpt>
      <trkpt lat="43.4397" lon="5.86027">
        <ele>356.79</ele>
        <time>2019-03-03T17:09:52Z</time>
      </trkpt>
      <trkpt lat="43.43966" lon="5.86023">
        <ele>356.79</ele>
        <time>2019-03-03T17:10:18Z</time>
      </trkpt>
      <trkpt lat="43.43969" lon="5.86021">
        <ele>356.79</ele>
        <time>2019-03-03T17:10:37Z</time>
      </trkpt>
      <trkpt lat="43.43974" lon="5.86016">
        <ele>356.79</ele>
        <time>2019-03-03T17:11:06Z</time>
      </trkpt>
      <trkpt lat="43.43969" lon="5.86016">
        <ele>356.79</ele>
        <time>2019-03-03T17:11:31Z</time>
      </trkpt>
      <trkpt lat="43.43968" lon="5.86022">
        <ele>356.31</ele>
        <time>2019-03-03T17:11:58Z</time>
      </trkpt>
      <trkpt lat="43.43975" lon="5.86018">
        <ele>356.31</ele>
        <time>2019-03-03T17:12:28Z</time>
      </trkpt>
      <trkpt lat="43.4398" lon="5.86019">
        <ele>356.31</ele>
        <time>2019-03-03T17:12:47Z</time>
      </trkpt>
      <trkpt lat="43.43983" lon="5.86023">
        <ele>356.31</ele>
        <time>2019-03-03T17:12:55Z</time>
      </trkpt>
      <trkpt lat="43.43992" lon="5.86016">
        <ele>356.79</ele>
        <time>2019-03-03T17:13:14Z</time>
      </trkpt>
      <trkpt lat="43.43963" lon="5.8602">
        <ele>356.79</ele>
        <time>2019-03-03T17:13:26Z</time>
      </trkpt>
      <trkpt lat="43.43959" lon="5.8602">
        <ele>356.79</ele>
        <time>2019-03-03T17:13:48Z</time>
      </trkpt>
      <trkpt lat="43.43959" lon="5.86018">
        <ele>356.79</ele>
        <time>2019-03-03T17:14:09Z</time>
      </trkpt>
      <trkpt lat="43.43959" lon="5.8602">
        <ele>356.31</ele>
        <time>2019-03-03T17:14:45Z</time>
      </trkpt>
      <trkpt lat="43.43961" lon="5.86024">
        <ele>356.31</ele>
        <time>2019-03-03T17:15:01Z</time>
      </trkpt>
      <trkpt lat="43.43967" lon="5.8602">
        <ele>356.31</ele>
        <time>2019-03-03T17:15:18Z</time>
      </trkpt>
      <trkpt lat="43.43968" lon="5.86018">
        <ele>354.86</ele>
        <time>2019-03-03T17:15:27Z</time>
      </trkpt>
      <trkpt lat="43.43967" lon="5.86016">
        <ele>354.86</ele>
        <time>2019-03-03T17:15:44Z</time>
      </trkpt>
      <trkpt lat="43.43968" lon="5.86016">
        <ele>354.86</ele>
        <time>2019-03-03T17:16:04Z</time>
      </trkpt>
      <trkpt lat="43.43968" lon="5.86015">
        <ele>354.38</ele>
        <time>2019-03-03T17:16:25Z</time>
      </trkpt>
      <trkpt lat="43.43963" lon="5.86021">
        <ele>354.38</ele>
        <time>2019-03-03T17:16:45Z</time>
      </trkpt>
      <trkpt lat="43.43961" lon="5.86027">
        <ele>354.38</ele>
        <time>2019-03-03T17:17:13Z</time>
      </trkpt>
      <trkpt lat="43.43959" lon="5.86027">
        <ele>354.38</ele>
        <time>2019-03-03T17:17:52Z</time>
      </trkpt>
      <trkpt lat="43.43959" lon="5.86027">
        <ele>354.38</ele>
        <time>2019-03-03T17:18:31Z</time>
      </trkpt>
      <trkpt lat="43.43959" lon="5.86025">
        <ele>354.38</ele>
        <time>2019-03-03T17:18:51Z</time>
      </trkpt>
      <trkpt lat="43.43961" lon="5.86024">
        <ele>354.38</ele>
        <time>2019-03-03T17:19:19Z</time>
      </trkpt>
      <trkpt lat="43.43961" lon="5.86026">
        <ele>354.38</ele>
        <time>2019-03-03T17:19:44Z</time>
      </trkpt>
      <trkpt lat="43.4396" lon="5.86029">
        <ele>354.86</ele>
        <time>2019-03-03T17:20:16Z</time>
      </trkpt>
      <trkpt lat="43.43961" lon="5.8603">
        <ele>354.86</ele>
        <time>2019-03-03T17:20:52Z</time>
      </trkpt>
      <trkpt lat="43.4396" lon="5.86027">
        <ele>354.86</ele>
        <time>2019-03-03T17:21:19Z</time>
      </trkpt>
      <trkpt lat="43.4396" lon="5.86024">
        <ele>355.34</ele>
        <time>2019-03-03T17:21:44Z</time>
      </trkpt>
      <trkpt lat="43.43961" lon="5.86025">
        <ele>355.34</ele>
        <time>2019-03-03T17:22:23Z</time>
      </trkpt>
      <trkpt lat="43.4396" lon="5.86027">
        <ele>354.86</ele>
        <time>2019-03-03T17:23:02Z</time>
      </trkpt>
      <trkpt lat="43.43963" lon="5.86026">
        <ele>354.86</ele>
        <time>2019-03-03T17:23:41Z</time>
      </trkpt>
      <trkpt lat="43.43959" lon="5.86025">
        <ele>354.86</ele>
        <time>2019-03-03T17:24:18Z</time>
      </trkpt>
      <trkpt lat="43.43965" lon="5.86024">
        <ele>354.86</ele>
        <time>2019-03-03T17:25:00Z</time>
      </trkpt>
      <trkpt lat="43.43961" lon="5.86024">
        <ele>354.86</ele>
        <time>2019-03-03T17:25:32Z</time>
      </trkpt>
      <trkpt lat="43.43958" lon="5.86019">
        <ele>354.86</ele>
        <time>2019-03-03T17:26:02Z</time>
      </trkpt>
      <trkpt lat="43.43962" lon="5.86025">
        <ele>354.86</ele>
        <time>2019-03-03T17:26:32Z</time>
      </trkpt>
      <trkpt lat="43.43961" lon="5.86023">
        <ele>354.86</ele>
        <time>2019-03-03T17:27:01Z</time>
      </trkpt>
      <trkpt lat="43.43961" lon="5.86024">
        <ele>354.86</ele>
        <time>2019-03-03T17:27:28Z</time>
      </trkpt>
      <trkpt lat="43.43959" lon="5.86025">
        <ele>354.86</ele>
        <time>2019-03-03T17:27:56Z</time>
      </trkpt>
      <trkpt lat="43.43958" lon="5.86026">
        <ele>354.86</ele>
        <time>2019-03-03T17:28:32Z</time>
      </trkpt>
      <trkpt lat="43.43958" lon="5.86025">
        <ele>354.86</ele>
        <time>2019-03-03T17:29:01Z</time>
      </trkpt>
      <trkpt lat="43.43957" lon="5.86027">
        <ele>354.86</ele>
        <time>2019-03-03T17:29:28Z</time>
      </trkpt>
      <trkpt lat="43.43957" lon="5.86028">
        <ele>354.86</ele>
        <time>2019-03-03T17:29:35Z</time>
      </trkpt>
      <trkpt lat="43.4396" lon="5.86027">
        <ele>355.83</ele>
        <time>2019-03-03T17:29:52Z</time>
      </trkpt>
      <trkpt lat="43.43963" lon="5.86025">
        <ele>355.83</ele>
        <time>2019-03-03T17:30:29Z</time>
      </trkpt>
      <trkpt lat="43.43965" lon="5.86024">
        <ele>356.31</ele>
        <time>2019-03-03T17:31:02Z</time>
      </trkpt>
      <trkpt lat="43.43964" lon="5.86024">
        <ele>355.83</ele>
        <time>2019-03-03T17:31:33Z</time>
      </trkpt>
      <trkpt lat="43.43962" lon="5.86024">
        <ele>355.83</ele>
        <time>2019-03-03T17:32:07Z</time>
      </trkpt>
      <trkpt lat="43.43959" lon="5.86023">
        <ele>355.83</ele>
        <time>2019-03-03T17:32:37Z</time>
      </trkpt>
      <trkpt lat="43.43958" lon="5.86022">
        <ele>355.83</ele>
        <time>2019-03-03T17:33:09Z</time>
      </trkpt>
      <trkpt lat="43.43962" lon="5.86023">
        <ele>355.83</ele>
        <time>2019-03-03T17:33:46Z</time>
      </trkpt>
      <trkpt lat="43.43962" lon="5.86022">
        <ele>355.83</ele>
        <time>2019-03-03T17:34:18Z</time>
      </trkpt>
      <trkpt lat="43.43962" lon="5.86021">
        <ele>355.83</ele>
        <time>2019-03-03T17:34:57Z</time>
      </trkpt>
      <trkpt lat="43.43963" lon="5.86022">
        <ele>355.34</ele>
        <time>2019-03-03T17:35:34Z</time>
      </trkpt>
      <trkpt lat="43.43964" lon="5.86021">
        <ele>355.34</ele>
        <time>2019-03-03T17:36:16Z</time>
      </trkpt>
      <trkpt lat="43.43965" lon="5.86019">
        <ele>355.34</ele>
        <time>2019-03-03T17:36:46Z</time>
      </trkpt>
      <trkpt lat="43.43963" lon="5.8602">
        <ele>355.34</ele>
        <time>2019-03-03T17:37:23Z</time>
      </trkpt>
      <trkpt lat="43.43967" lon="5.86019">
        <ele>355.83</ele>
        <time>2019-03-03T17:37:50Z</time>
      </trkpt>
      <trkpt lat="43.43967" lon="5.86021">
        <ele>354.38</ele>
        <time>2019-03-03T17:38:29Z</time>
      </trkpt>
      <trkpt lat="43.43966" lon="5.86025">
        <ele>354.38</ele>
        <time>2019-03-03T17:39:02Z</time>
      </trkpt>
      <trkpt lat="43.43967" lon="5.86026">
        <ele>354.86</ele>
        <time>2019-03-03T17:39:36Z</time>
      </trkpt>
      <trkpt lat="43.43965" lon="5.86027">
        <ele>354.86</ele>
        <time>2019-03-03T17:40:14Z</time>
      </trkpt>
      <trkpt lat="43.43964" lon="5.86026">
        <ele>354.86</ele>
        <time>2019-03-03T17:40:46Z</time>
      </trkpt>
      <trkpt lat="43.43963" lon="5.86025">
        <ele>354.86</ele>
        <time>2019-03-03T17:41:19Z</time>
      </trkpt>
      <trkpt lat="43.43963" lon="5.86024">
        <ele>354.86</ele>
        <time>2019-03-03T17:41:54Z</time>
      </trkpt>
      <trkpt lat="43.43961" lon="5.86025">
        <ele>354.86</ele>
        <time>2019-03-03T17:42:27Z</time>
      </trkpt>
      <trkpt lat="43.43963" lon="5.86025">
        <ele>355.34</ele>
        <time>2019-03-03T17:43:00Z</time>
      </trkpt>
      <trkpt lat="43.43963" lon="5.86022">
        <ele>355.34</ele>
        <time>2019-03-03T17:43:30Z</time>
      </trkpt>
      <trkpt lat="43.43963" lon="5.86022">
        <ele>355.34</ele>
        <time>2019-03-03T17:44:00Z</time>
      </trkpt>
      <trkpt lat="43.43962" lon="5.86022">
        <ele>355.34</ele>
        <time>2019-03-03T17:44:31Z</time>
      </trkpt>
      <trkpt lat="43.43962" lon="5.86024">
        <ele>355.34</ele>
        <time>2019-03-03T17:45:06Z</time>
      </trkpt>
      <trkpt lat="43.43963" lon="5.86022">
        <ele>355.34</ele>
        <time>2019-03-03T17:45:45Z</time>
      </trkpt>
      <trkpt lat="43.43963" lon="5.86022">
        <ele>355.34</ele>
        <time>2019-03-03T17:46:17Z</time>
      </trkpt>
      <trkpt lat="43.43963" lon="5.86018">
        <ele>355.34</ele>
        <time>2019-03-03T17:46:50Z</time>
      </trkpt>
      <trkpt lat="43.43963" lon="5.86019">
        <ele>355.83</ele>
        <time>2019-03-03T17:47:23Z</time>
      </trkpt>
      <trkpt lat="43.43962" lon="5.86021">
        <ele>355.83</ele>
        <time>2019-03-03T17:47:59Z</time>
      </trkpt>
      <trkpt lat="43.43961" lon="5.86024">
        <ele>355.34</ele>
        <time>2019-03-03T17:48:31Z</time>
      </trkpt>
      <trkpt lat="43.43962" lon="5.86022">
        <ele>355.34</ele>
        <time>2019-03-03T17:49:06Z</time>
      </trkpt>
      <trkpt lat="43.43963" lon="5.86021">
        <ele>355.34</ele>
        <time>2019-03-03T17:49:34Z</time>
      </trkpt>
      <trkpt lat="43.43968" lon="5.8602">
        <ele>355.34</ele>
        <time>2019-03-03T17:50:10Z</time>
      </trkpt>
      <trkpt lat="43.43967" lon="5.86021">
        <ele>354.86</ele>
        <time>2019-03-03T17:50:17Z</time>
      </trkpt>
      <trkpt lat="43.43976" lon="5.86054">
        <ele>236.62</ele>
        <time>2019-03-10T08:38:57Z</time>
      </trkpt>
      <trkpt lat="43.43983" lon="5.86062">
        <ele>236.14</ele>
        <time>2019-03-10T08:39:19Z</time>
      </trkpt>
      <trkpt lat="43.43978" lon="5.86045">
        <ele>240.47</ele>
        <time>2019-03-10T08:39:39Z</time>
      </trkpt>
      <trkpt lat="43.43978" lon="5.86045">
        <ele>244.79</ele>
        <time>2019-03-10T08:39:40Z</time>
      </trkpt>
      <trkpt lat="43.43979" lon="5.86044">
        <ele>248.64</ele>
        <time>2019-03-10T08:39:41Z</time>
      </trkpt>
      <trkpt lat="43.43979" lon="5.86044">
        <ele>256.33</ele>
        <time>2019-03-10T08:39:42Z</time>
      </trkpt>
      <trkpt lat="43.43979" lon="5.86043">
        <ele>260.17</ele>
        <time>2019-03-10T08:39:43Z</time>
      </trkpt>
      <trkpt lat="43.43979" lon="5.86043">
        <ele>260.17</ele>
        <time>2019-03-10T08:39:44Z</time>
      </trkpt>
      <trkpt lat="43.43979" lon="5.86043">
        <ele>263.54</ele>
        <time>2019-03-10T08:39:45Z</time>
      </trkpt>
      <trkpt lat="43.43979" lon="5.86042">
        <ele>266.9</ele>
        <time>2019-03-10T08:39:46Z</time>
      </trkpt>
      <trkpt lat="43.43979" lon="5.86041">
        <ele>270.27</ele>
        <time>2019-03-10T08:39:47Z</time>
      </trkpt>
      <trkpt lat="43.43979" lon="5.8604">
        <ele>273.15</ele>
        <time>2019-03-10T08:39:48Z</time>
      </trkpt>
      <trkpt lat="43.43979" lon="5.8604">
        <ele>276.04</ele>
        <time>2019-03-10T08:39:49Z</time>
      </trkpt>
      <trkpt lat="43.43979" lon="5.86039">
        <ele>281.8</ele>
        <time>2019-03-10T08:39:51Z</time>
      </trkpt>
      <trkpt lat="43.43979" lon="5.86039">
        <ele>286.13</ele>
        <time>2019-03-10T08:39:52Z</time>
      </trkpt>
      <trkpt lat="43.43979" lon="5.86038">
        <ele>290.94</ele>
        <time>2019-03-10T08:39:54Z</time>
      </trkpt>
      <trkpt lat="43.43979" lon="5.86037">
        <ele>295.74</ele>
        <time>2019-03-10T08:39:56Z</time>
      </trkpt>
      <trkpt lat="43.43979" lon="5.86036">
        <ele>300.07</ele>
        <time>2019-03-10T08:39:58Z</time>
      </trkpt>
      <trkpt lat="43.43979" lon="5.86035">
        <ele>303.91</ele>
        <time>2019-03-10T08:40:00Z</time>
      </trkpt>
      <trkpt lat="43.43979" lon="5.86034">
        <ele>307.76</ele>
        <time>2019-03-10T08:40:02Z</time>
      </trkpt>
      <trkpt lat="43.43979" lon="5.86033">
        <ele>311.12</ele>
        <time>2019-03-10T08:40:04Z</time>
      </trkpt>
      <trkpt lat="43.43978" lon="5.86032">
        <ele>314.49</ele>
        <time>2019-03-10T08:40:06Z</time>
      </trkpt>
      <trkpt lat="43.43976" lon="5.86031">
        <ele>318.81</ele>
        <time>2019-03-10T08:40:08Z</time>
      </trkpt>
      <trkpt lat="43.43975" lon="5.8603">
        <ele>319.78</ele>
        <time>2019-03-10T08:40:10Z</time>
      </trkpt>
      <trkpt lat="43.43973" lon="5.86029">
        <ele>323.14</ele>
        <time>2019-03-10T08:40:13Z</time>
      </trkpt>
      <trkpt lat="43.43973" lon="5.86029">
        <ele>326.99</ele>
        <time>2019-03-10T08:40:17Z</time>
      </trkpt>
      <trkpt lat="43.43973" lon="5.86028">
        <ele>330.35</ele>
        <time>2019-03-10T08:40:21Z</time>
      </trkpt>
      <trkpt lat="43.43971" lon="5.86029">
        <ele>333.71</ele>
        <time>2019-03-10T08:40:26Z</time>
      </trkpt>
      <trkpt lat="43.43971" lon="5.86028">
        <ele>337.08</ele>
        <time>2019-03-10T08:40:32Z</time>
      </trkpt>
      <trkpt lat="43.43971" lon="5.86027">
        <ele>339.96</ele>
        <time>2019-03-10T08:40:39Z</time>
      </trkpt>
      <trkpt lat="43.4397" lon="5.86031">
        <ele>343.33</ele>
        <time>2019-03-10T08:40:49Z</time>
      </trkpt>
      <trkpt lat="43.4397" lon="5.86035">
        <ele>346.69</ele>
        <time>2019-03-10T08:41:04Z</time>
      </trkpt>
      <trkpt lat="43.43968" lon="5.86039">
        <ele>349.1</ele>
        <time>2019-03-10T08:41:35Z</time>
      </trkpt>
      <trkpt lat="43.43966" lon="5.86029">
        <ele>349.58</ele>
        <time>2019-03-10T08:42:05Z</time>
      </trkpt>
      <trkpt lat="43.43969" lon="5.86029">
        <ele>349.58</ele>
        <time>2019-03-10T08:42:41Z</time>
      </trkpt>
      <trkpt lat="43.43967" lon="5.8603">
        <ele>349.58</ele>
        <time>2019-03-10T08:43:19Z</time>
      </trkpt>
      <trkpt lat="43.43968" lon="5.8603">
        <ele>349.58</ele>
        <time>2019-03-10T08:43:55Z</time>
      </trkpt>
      <trkpt lat="43.43968" lon="5.86033">
        <ele>349.58</ele>
        <time>2019-03-10T08:44:28Z</time>
      </trkpt>
      <trkpt lat="43.43967" lon="5.86031">
        <ele>350.06</ele>
        <time>2019-03-10T08:45:04Z</time>
      </trkpt>
      <trkpt lat="43.43968" lon="5.8603">
        <ele>350.06</ele>
        <time>2019-03-10T08:45:40Z</time>
      </trkpt>
      <trkpt lat="43.43966" lon="5.86029">
        <ele>350.06</ele>
        <time>2019-03-10T08:46:23Z</time>
      </trkpt>
      <trkpt lat="43.43967" lon="5.86031">
        <ele>350.06</ele>
        <time>2019-03-10T08:47:03Z</time>
      </trkpt>
      <trkpt lat="43.43968" lon="5.86032">
        <ele>350.06</ele>
        <time>2019-03-10T08:47:42Z</time>
      </trkpt>
      <trkpt lat="43.43969" lon="5.86033">
        <ele>350.06</ele>
        <time>2019-03-10T08:48:11Z</time>
      </trkpt>
      <trkpt lat="43.43969" lon="5.86029">
        <ele>350.54</ele>
        <time>2019-03-10T08:48:53Z</time>
      </trkpt>
      <trkpt lat="43.43968" lon="5.86027">
        <ele>350.54</ele>
        <time>2019-03-10T08:49:30Z</time>
      </trkpt>
      <trkpt lat="43.43969" lon="5.8603">
        <ele>350.54</ele>
        <time>2019-03-10T08:50:11Z</time>
      </trkpt>
      <trkpt lat="43.4397" lon="5.86031">
        <ele>350.54</ele>
        <time>2019-03-10T08:50:47Z</time>
      </trkpt>
      <trkpt lat="43.43972" lon="5.86032">
        <ele>350.06</ele>
        <time>2019-03-10T08:51:24Z</time>
      </trkpt>
      <trkpt lat="43.43973" lon="5.86032">
        <ele>350.06</ele>
        <time>2019-03-10T08:52:02Z</time>
      </trkpt>
      <trkpt lat="43.43971" lon="5.86033">
        <ele>350.06</ele>
        <time>2019-03-10T08:52:42Z</time>
      </trkpt>
      <trkpt lat="43.43971" lon="5.86034">
        <ele>350.54</ele>
        <time>2019-03-10T08:53:17Z</time>
      </trkpt>
      <trkpt lat="43.43973" lon="5.86034">
        <ele>350.54</ele>
        <time>2019-03-10T08:53:51Z</time>
      </trkpt>
      <trkpt lat="43.43972" lon="5.86036">
        <ele>351.98</ele>
        <time>2019-03-10T08:54:21Z</time>
      </trkpt>
      <trkpt lat="43.43975" lon="5.86034">
        <ele>351.02</ele>
        <time>2019-03-10T08:54:40Z</time>
      </trkpt>
      <trkpt lat="43.43976" lon="5.86034">
        <ele>352.46</ele>
        <time>2019-03-10T08:55:17Z</time>
      </trkpt>
      <trkpt lat="43.43973" lon="5.8603">
        <ele>352.46</ele>
        <time>2019-03-10T08:55:30Z</time>
      </trkpt>
      <trkpt lat="43.43975" lon="5.86028">
        <ele>352.46</ele>
        <time>2019-03-10T08:55:41Z</time>
      </trkpt>
      <trkpt lat="43.43977" lon="5.86025">
        <ele>352.46</ele>
        <time>2019-03-10T08:55:42Z</time>
      </trkpt>
      <trkpt lat="43.43978" lon="5.86022">
        <ele>352.46</ele>
        <time>2019-03-10T08:55:43Z</time>
      </trkpt>
      <trkpt lat="43.43981" lon="5.8602">
        <ele>352.46</ele>
        <time>2019-03-10T08:55:44Z</time>
      </trkpt>
      <trkpt lat="43.43983" lon="5.8602">
        <ele>352.46</ele>
        <time>2019-03-10T08:55:45Z</time>
      </trkpt>
      <trkpt lat="43.43986" lon="5.86022">
        <ele>352.46</ele>
        <time>2019-03-10T08:55:46Z</time>
      </trkpt>
      <trkpt lat="43.4399" lon="5.86027">
        <ele>352.46</ele>
        <time>2019-03-10T08:55:47Z</time>
      </trkpt>
      <trkpt lat="43.43993" lon="5.86032">
        <ele>352.46</ele>
        <time>2019-03-10T08:55:48Z</time>
      </trkpt>
      <trkpt lat="43.44002" lon="5.86043">
        <ele>351.02</ele>
        <time>2019-03-10T08:55:50Z</time>
      </trkpt>
      <trkpt lat="43.44026" lon="5.86072">
        <ele>349.58</ele>
        <time>2019-03-10T08:55:55Z</time>
      </trkpt>
      <trkpt lat="43.4403" lon="5.86079">
        <ele>349.58</ele>
        <time>2019-03-10T08:55:56Z</time>
      </trkpt>
      <trkpt lat="43.44031" lon="5.86087">
        <ele>349.1</ele>
        <time>2019-03-10T08:55:57Z</time>
      </trkpt>
      <trkpt lat="43.44031" lon="5.86095">
        <ele>348.62</ele>
        <time>2019-03-10T08:55:58Z</time>
      </trkpt>
      <trkpt lat="43.4403" lon="5.86103">
        <ele>348.62</ele>
        <time>2019-03-10T08:55:59Z</time>
      </trkpt>
      <trkpt lat="43.44029" lon="5.86111">
        <ele>348.62</ele>
        <time>2019-03-10T08:56:00Z</time>
      </trkpt>
      <trkpt lat="43.44029" lon="5.8612">
        <ele>348.62</ele>
        <time>2019-03-10T08:56:01Z</time>
      </trkpt>
      <trkpt lat="43.44028" lon="5.86194">
        <ele>347.17</ele>
        <time>2019-03-10T08:56:10Z</time>
      </trkpt>
      <trkpt lat="43.44037" lon="5.86259">
        <ele>342.85</ele>
        <time>2019-03-10T08:56:17Z</time>
      </trkpt>
      <trkpt lat="43.44041" lon="5.86286">
        <ele>340.44</ele>
        <time>2019-03-10T08:56:22Z</time>
      </trkpt>
      <trkpt lat="43.44044" lon="5.86289">
        <ele>339.96</ele>
        <time>2019-03-10T08:56:23Z</time>
      </trkpt>
      <trkpt lat="43.44048" lon="5.86291">
        <ele>339.96</ele>
        <time>2019-03-10T08:56:24Z</time>
      </trkpt>
      <trkpt lat="43.4405" lon="5.86291">
        <ele>340.44</ele>
        <time>2019-03-10T08:56:25Z</time>
      </trkpt>
      <trkpt lat="43.44055" lon="5.8629">
        <ele>340.44</ele>
        <time>2019-03-10T08:56:26Z</time>
      </trkpt>
      <trkpt lat="43.44059" lon="5.86289">
        <ele>340.44</ele>
        <time>2019-03-10T08:56:27Z</time>
      </trkpt>
      <trkpt lat="43.44131" lon="5.86262">
        <ele>339.48</ele>
        <time>2019-03-10T08:56:42Z</time>
      </trkpt>
      <trkpt lat="43.44213" lon="5.86233">
        <ele>339.96</ele>
        <time>2019-03-10T08:56:56Z</time>
      </trkpt>
      <trkpt lat="43.44229" lon="5.86228">
        <ele>338.04</ele>
        <time>2019-03-10T08:56:59Z</time>
      </trkpt>
      <trkpt lat="43.44313" lon="5.8619">
        <ele>337.56</ele>
        <time>2019-03-10T08:57:15Z</time>
      </trkpt>
      <trkpt lat="43.44317" lon="5.86187">
        <ele>337.56</ele>
        <time>2019-03-10T08:57:16Z</time>
      </trkpt>
      <trkpt lat="43.44323" lon="5.86183">
        <ele>337.56</ele>
        <time>2019-03-10T08:57:17Z</time>
      </trkpt>
      <trkpt lat="43.44377" lon="5.86109">
        <ele>334.2</ele>
        <time>2019-03-10T08:57:30Z</time>
      </trkpt>
      <trkpt lat="43.44405" lon="5.86015">
        <ele>331.79</ele>
        <time>2019-03-10T08:57:42Z</time>
      </trkpt>
      <trkpt lat="43.44429" lon="5.85957">
        <ele>330.35</ele>
        <time>2019-03-10T08:57:52Z</time>
      </trkpt>
      <trkpt lat="43.44433" lon="5.85956">
        <ele>330.35</ele>
        <time>2019-03-10T08:57:53Z</time>
      </trkpt>
      <trkpt lat="43.44439" lon="5.85957">
        <ele>330.83</ele>
        <time>2019-03-10T08:57:54Z</time>
      </trkpt>
      <trkpt lat="43.4452" lon="5.85986">
        <ele>327.95</ele>
        <time>2019-03-10T08:58:07Z</time>
      </trkpt>
      <trkpt lat="43.44599" lon="5.86013">
        <ele>325.06</ele>
        <time>2019-03-10T08:58:20Z</time>
      </trkpt>
      <trkpt lat="43.44635" lon="5.86027">
        <ele>323.14</ele>
        <time>2019-03-10T08:58:26Z</time>
      </trkpt>
      <trkpt lat="43.44638" lon="5.86031">
        <ele>322.66</ele>
        <time>2019-03-10T08:58:27Z</time>
      </trkpt>
      <trkpt lat="43.4464" lon="5.86035">
        <ele>322.66</ele>
        <time>2019-03-10T08:58:28Z</time>
      </trkpt>
      <trkpt lat="43.44642" lon="5.86037">
        <ele>322.66</ele>
        <time>2019-03-10T08:58:29Z</time>
      </trkpt>
      <trkpt lat="43.44644" lon="5.86038">
        <ele>322.18</ele>
        <time>2019-03-10T08:58:30Z</time>
      </trkpt>
      <trkpt lat="43.44645" lon="5.86037">
        <ele>322.18</ele>
        <time>2019-03-10T08:58:31Z</time>
      </trkpt>
      <trkpt lat="43.44644" lon="5.86035">
        <ele>322.18</ele>
        <time>2019-03-10T08:58:38Z</time>
      </trkpt>
      <trkpt lat="43.44643" lon="5.86032">
        <ele>322.18</ele>
        <time>2019-03-10T08:58:39Z</time>
      </trkpt>
      <trkpt lat="43.44642" lon="5.8603">
        <ele>322.18</ele>
        <time>2019-03-10T08:58:40Z</time>
      </trkpt>
      <trkpt lat="43.44641" lon="5.86028">
        <ele>322.18</ele>
        <time>2019-03-10T08:58:41Z</time>
      </trkpt>
      <trkpt lat="43.4464" lon="5.86026">
        <ele>322.18</ele>
        <time>2019-03-10T08:58:42Z</time>
      </trkpt>
      <trkpt lat="43.44639" lon="5.86025">
        <ele>322.18</ele>
        <time>2019-03-10T08:58:43Z</time>
      </trkpt>
      <trkpt lat="43.44637" lon="5.8602">
        <ele>322.18</ele>
        <time>2019-03-10T08:58:55Z</time>
      </trkpt>
      <trkpt lat="43.44635" lon="5.86019">
        <ele>322.18</ele>
        <time>2019-03-10T08:59:21Z</time>
      </trkpt>
      <trkpt lat="43.44634" lon="5.8602">
        <ele>322.18</ele>
        <time>2019-03-10T08:59:24Z</time>
      </trkpt>
      <trkpt lat="43.44632" lon="5.86021">
        <ele>322.18</ele>
        <time>2019-03-10T08:59:25Z</time>
      </trkpt>
      <trkpt lat="43.4463" lon="5.8602">
        <ele>322.18</ele>
        <time>2019-03-10T08:59:26Z</time>
      </trkpt>
      <trkpt lat="43.44629" lon="5.8602">
        <ele>322.18</ele>
        <time>2019-03-10T08:59:27Z</time>
      </trkpt>
      <trkpt lat="43.44627" lon="5.86019">
        <ele>322.18</ele>
        <time>2019-03-10T08:59:28Z</time>
      </trkpt>
      <trkpt lat="43.44623" lon="5.86017">
        <ele>323.14</ele>
        <time>2019-03-10T08:59:30Z</time>
      </trkpt>
      <trkpt lat="43.44577" lon="5.86002">
        <ele>325.06</ele>
        <time>2019-03-10T08:59:49Z</time>
      </trkpt>
      <trkpt lat="43.44519" lon="5.8598">
        <ele>326.5</ele>
        <time>2019-03-10T09:00:10Z</time>
      </trkpt>
      <trkpt lat="43.44476" lon="5.85962">
        <ele>327.95</ele>
        <time>2019-03-10T09:00:27Z</time>
      </trkpt>
      <trkpt lat="43.44439" lon="5.85945">
        <ele>329.87</ele>
        <time>2019-03-10T09:00:45Z</time>
      </trkpt>
      <trkpt lat="43.44433" lon="5.8594">
        <ele>329.87</ele>
        <time>2019-03-10T09:00:48Z</time>
      </trkpt>
      <trkpt lat="43.44431" lon="5.8594">
        <ele>329.87</ele>
        <time>2019-03-10T09:00:49Z</time>
      </trkpt>
      <trkpt lat="43.44428" lon="5.8594">
        <ele>329.87</ele>
        <time>2019-03-10T09:00:50Z</time>
      </trkpt>
      <trkpt lat="43.44425" lon="5.85941">
        <ele>329.87</ele>
        <time>2019-03-10T09:00:51Z</time>
      </trkpt>
      <trkpt lat="43.44422" lon="5.8594">
        <ele>330.35</ele>
        <time>2019-03-10T09:00:52Z</time>
      </trkpt>
      <trkpt lat="43.44418" lon="5.8594">
        <ele>330.35</ele>
        <time>2019-03-10T09:00:53Z</time>
      </trkpt>
      <trkpt lat="43.44387" lon="5.8593">
        <ele>331.31</ele>
        <time>2019-03-10T09:01:04Z</time>
      </trkpt>
      <trkpt lat="43.44332" lon="5.85908">
        <ele>332.75</ele>
        <time>2019-03-10T09:01:23Z</time>
      </trkpt>
      <trkpt lat="43.44281" lon="5.85889">
        <ele>335.16</ele>
        <time>2019-03-10T09:01:42Z</time>
      </trkpt>
      <trkpt lat="43.44232" lon="5.85872">
        <ele>337.08</ele>
        <time>2019-03-10T09:01:59Z</time>
      </trkpt>
      <trkpt lat="43.44185" lon="5.85854">
        <ele>338.52</ele>
        <time>2019-03-10T09:02:16Z</time>
      </trkpt>
      <trkpt lat="43.44136" lon="5.85834">
        <ele>340.44</ele>
        <time>2019-03-10T09:02:33Z</time>
      </trkpt>
      <trkpt lat="43.44087" lon="5.85815">
        <ele>342.37</ele>
        <time>2019-03-10T09:02:49Z</time>
      </trkpt>
      <trkpt lat="43.44037" lon="5.85796">
        <ele>345.25</ele>
        <time>2019-03-10T09:03:11Z</time>
      </trkpt>
      <trkpt lat="43.43997" lon="5.85779">
        <ele>347.17</ele>
        <time>2019-03-10T09:03:28Z</time>
      </trkpt>
      <trkpt lat="43.43953" lon="5.85757">
        <ele>349.1</ele>
        <time>2019-03-10T09:03:47Z</time>
      </trkpt>
      <trkpt lat="43.43951" lon="5.85743">
        <ele>349.1</ele>
        <time>2019-03-10T09:03:51Z</time>
      </trkpt>
      <trkpt lat="43.43952" lon="5.85738">
        <ele>349.1</ele>
        <time>2019-03-10T09:03:52Z</time>
      </trkpt>
      <trkpt lat="43.43965" lon="5.85674">
        <ele>349.1</ele>
        <time>2019-03-10T09:04:05Z</time>
      </trkpt>
      <trkpt lat="43.43972" lon="5.85588">
        <ele>347.65</ele>
        <time>2019-03-10T09:04:20Z</time>
      </trkpt>
      <trkpt lat="43.43988" lon="5.85514">
        <ele>348.13</ele>
        <time>2019-03-10T09:04:35Z</time>
      </trkpt>
      <trkpt lat="43.4399" lon="5.85458">
        <ele>351.02</ele>
        <time>2019-03-10T09:04:49Z</time>
      </trkpt>
      <trkpt lat="43.44" lon="5.85392">
        <ele>352.94</ele>
        <time>2019-03-10T09:05:04Z</time>
      </trkpt>
      <trkpt lat="43.44001" lon="5.85344">
        <ele>354.86</ele>
        <time>2019-03-10T09:05:18Z</time>
      </trkpt>
      <trkpt lat="43.44008" lon="5.85291">
        <ele>358.23</ele>
        <time>2019-03-10T09:05:35Z</time>
      </trkpt>
      <trkpt lat="43.44021" lon="5.85249">
        <ele>359.67</ele>
        <time>2019-03-10T09:05:49Z</time>
      </trkpt>
      <trkpt lat="43.44024" lon="5.85186">
        <ele>361.59</ele>
        <time>2019-03-10T09:06:05Z</time>
      </trkpt>
      <trkpt lat="43.44038" lon="5.85131">
        <ele>363.52</ele>
        <time>2019-03-10T09:06:21Z</time>
      </trkpt>
      <trkpt lat="43.44057" lon="5.85081">
        <ele>364.96</ele>
        <time>2019-03-10T09:06:34Z</time>
      </trkpt>
      <trkpt lat="43.44064" lon="5.85026">
        <ele>366.88</ele>
        <time>2019-03-10T09:06:48Z</time>
      </trkpt>
      <trkpt lat="43.44065" lon="5.84959">
        <ele>367.84</ele>
        <time>2019-03-10T09:07:03Z</time>
      </trkpt>
      <trkpt lat="43.44065" lon="5.84892">
        <ele>369.76</ele>
        <time>2019-03-10T09:07:21Z</time>
      </trkpt>
      <trkpt lat="43.44062" lon="5.84844">
        <ele>371.69</ele>
        <time>2019-03-10T09:07:34Z</time>
      </trkpt>
      <trkpt lat="43.44062" lon="5.84801">
        <ele>375.05</ele>
        <time>2019-03-10T09:07:47Z</time>
      </trkpt>
      <trkpt lat="43.44067" lon="5.84778">
        <ele>376.49</ele>
        <time>2019-03-10T09:07:53Z</time>
      </trkpt>
      <trkpt lat="43.44067" lon="5.84775">
        <ele>376.97</ele>
        <time>2019-03-10T09:07:54Z</time>
      </trkpt>
      <trkpt lat="43.44067" lon="5.84772">
        <ele>376.97</ele>
        <time>2019-03-10T09:07:55Z</time>
      </trkpt>
      <trkpt lat="43.44067" lon="5.84769">
        <ele>376.97</ele>
        <time>2019-03-10T09:07:56Z</time>
      </trkpt>
      <trkpt lat="43.44067" lon="5.84766">
        <ele>378.42</ele>
        <time>2019-03-10T09:07:57Z</time>
      </trkpt>
      <trkpt lat="43.44067" lon="5.84763">
        <ele>378.42</ele>
        <time>2019-03-10T09:07:58Z</time>
      </trkpt>
      <trkpt lat="43.44067" lon="5.8476">
        <ele>378.42</ele>
        <time>2019-03-10T09:07:59Z</time>
      </trkpt>
      <trkpt lat="43.44067" lon="5.84757">
        <ele>378.9</ele>
        <time>2019-03-10T09:08:00Z</time>
      </trkpt>
      <trkpt lat="43.44071" lon="5.84712">
        <ele>381.78</ele>
        <time>2019-03-10T09:08:17Z</time>
      </trkpt>
      <trkpt lat="43.44075" lon="5.84665">
        <ele>385.15</ele>
        <time>2019-03-10T09:08:34Z</time>
      </trkpt>
      <trkpt lat="43.44076" lon="5.84657">
        <ele>385.63</ele>
        <time>2019-03-10T09:08:37Z</time>
      </trkpt>
      <trkpt lat="43.44076" lon="5.84655">
        <ele>385.63</ele>
        <time>2019-03-10T09:08:38Z</time>
      </trkpt>
      <trkpt lat="43.44076" lon="5.84653">
        <ele>386.11</ele>
        <time>2019-03-10T09:08:39Z</time>
      </trkpt>
      <trkpt lat="43.44078" lon="5.84619">
        <ele>388.99</ele>
        <time>2019-03-10T09:08:54Z</time>
      </trkpt>
      <trkpt lat="43.44075" lon="5.84584">
        <ele>392.36</ele>
        <time>2019-03-10T09:09:08Z</time>
      </trkpt>
      <trkpt lat="43.44069" lon="5.84537">
        <ele>395.24</ele>
        <time>2019-03-10T09:09:25Z</time>
      </trkpt>
      <trkpt lat="43.44063" lon="5.84491">
        <ele>397.16</ele>
        <time>2019-03-10T09:09:43Z</time>
      </trkpt>
      <trkpt lat="43.4406" lon="5.8444">
        <ele>398.6</ele>
        <time>2019-03-10T09:10:01Z</time>
      </trkpt>
      <trkpt lat="43.44057" lon="5.84383">
        <ele>399.57</ele>
        <time>2019-03-10T09:10:20Z</time>
      </trkpt>
      <trkpt lat="43.44061" lon="5.84336">
        <ele>400.53</ele>
        <time>2019-03-10T09:10:36Z</time>
      </trkpt>
      <trkpt lat="43.4406" lon="5.84334">
        <ele>400.53</ele>
        <time>2019-03-10T09:10:37Z</time>
      </trkpt>
      <trkpt lat="43.44046" lon="5.84296">
        <ele>400.53</ele>
        <time>2019-03-10T09:10:51Z</time>
      </trkpt>
      <trkpt lat="43.44041" lon="5.84239">
        <ele>401.97</ele>
        <time>2019-03-10T09:11:07Z</time>
      </trkpt>
      <trkpt lat="43.44039" lon="5.84204">
        <ele>403.89</ele>
        <time>2019-03-10T09:11:19Z</time>
      </trkpt>
      <trkpt lat="43.44034" lon="5.84176">
        <ele>401.97</ele>
        <time>2019-03-10T09:11:26Z</time>
      </trkpt>
      <trkpt lat="43.44034" lon="5.84115">
        <ele>400.05</ele>
        <time>2019-03-10T09:11:39Z</time>
      </trkpt>
      <trkpt lat="43.44034" lon="5.8411">
        <ele>399.57</ele>
        <time>2019-03-10T09:11:40Z</time>
      </trkpt>
      <trkpt lat="43.44035" lon="5.84104">
        <ele>399.08</ele>
        <time>2019-03-10T09:11:41Z</time>
      </trkpt>
      <trkpt lat="43.44048" lon="5.84045">
        <ele>398.12</ele>
        <time>2019-03-10T09:11:54Z</time>
      </trkpt>
      <trkpt lat="43.44049" lon="5.84001">
        <ele>399.57</ele>
        <time>2019-03-10T09:12:05Z</time>
      </trkpt>
      <trkpt lat="43.44056" lon="5.83969">
        <ele>398.12</ele>
        <time>2019-03-10T09:12:14Z</time>
      </trkpt>
      <trkpt lat="43.4407" lon="5.83942">
        <ele>398.12</ele>
        <time>2019-03-10T09:12:24Z</time>
      </trkpt>
      <trkpt lat="43.44072" lon="5.83937">
        <ele>398.12</ele>
        <time>2019-03-10T09:12:26Z</time>
      </trkpt>
      <trkpt lat="43.44072" lon="5.83933">
        <ele>398.12</ele>
        <time>2019-03-10T09:12:27Z</time>
      </trkpt>
      <trkpt lat="43.44071" lon="5.83929">
        <ele>398.12</ele>
        <time>2019-03-10T09:12:28Z</time>
      </trkpt>
      <trkpt lat="43.4407" lon="5.83926">
        <ele>398.12</ele>
        <time>2019-03-10T09:12:29Z</time>
      </trkpt>
      <trkpt lat="43.4407" lon="5.83923">
        <ele>398.12</ele>
        <time>2019-03-10T09:12:30Z</time>
      </trkpt>
      <trkpt lat="43.44069" lon="5.8392">
        <ele>398.12</ele>
        <time>2019-03-10T09:12:31Z</time>
      </trkpt>
      <trkpt lat="43.44068" lon="5.83917">
        <ele>398.12</ele>
        <time>2019-03-10T09:12:32Z</time>
      </trkpt>
      <trkpt lat="43.44067" lon="5.83915">
        <ele>398.12</ele>
        <time>2019-03-10T09:12:33Z</time>
      </trkpt>
      <trkpt lat="43.44067" lon="5.83912">
        <ele>398.12</ele>
        <time>2019-03-10T09:12:34Z</time>
      </trkpt>
      <trkpt lat="43.44067" lon="5.8391">
        <ele>398.12</ele>
        <time>2019-03-10T09:12:35Z</time>
      </trkpt>
      <trkpt lat="43.44068" lon="5.83907">
        <ele>399.57</ele>
        <time>2019-03-10T09:12:36Z</time>
      </trkpt>
      <trkpt lat="43.44069" lon="5.83905">
        <ele>399.57</ele>
        <time>2019-03-10T09:12:37Z</time>
      </trkpt>
      <trkpt lat="43.44074" lon="5.83889">
        <ele>401.49</ele>
        <time>2019-03-10T09:12:46Z</time>
      </trkpt>
      <trkpt lat="43.44078" lon="5.83881">
        <ele>401.97</ele>
        <time>2019-03-10T09:12:50Z</time>
      </trkpt>
      <trkpt lat="43.4408" lon="5.83878">
        <ele>401.97</ele>
        <time>2019-03-10T09:12:51Z</time>
      </trkpt>
      <trkpt lat="43.44081" lon="5.83875">
        <ele>402.45</ele>
        <time>2019-03-10T09:12:52Z</time>
      </trkpt>
      <trkpt lat="43.44106" lon="5.83818">
        <ele>402.93</ele>
        <time>2019-03-10T09:13:09Z</time>
      </trkpt>
      <trkpt lat="43.44119" lon="5.83786">
        <ele>405.33</ele>
        <time>2019-03-10T09:13:21Z</time>
      </trkpt>
      <trkpt lat="43.44126" lon="5.83749">
        <ele>406.77</ele>
        <time>2019-03-10T09:13:34Z</time>
      </trkpt>
      <trkpt lat="43.44132" lon="5.83718">
        <ele>407.74</ele>
        <time>2019-03-10T09:13:46Z</time>
      </trkpt>
      <trkpt lat="43.44133" lon="5.83715">
        <ele>407.74</ele>
        <time>2019-03-10T09:13:47Z</time>
      </trkpt>
      <trkpt lat="43.44144" lon="5.83664">
        <ele>408.22</ele>
        <time>2019-03-10T09:14:02Z</time>
      </trkpt>
      <trkpt lat="43.44134" lon="5.83628">
        <ele>409.66</ele>
        <time>2019-03-10T09:14:16Z</time>
      </trkpt>
      <trkpt lat="43.44122" lon="5.836">
        <ele>410.14</ele>
        <time>2019-03-10T09:14:28Z</time>
      </trkpt>
      <trkpt lat="43.44121" lon="5.83596">
        <ele>410.14</ele>
        <time>2019-03-10T09:14:29Z</time>
      </trkpt>
      <trkpt lat="43.4412" lon="5.83593">
        <ele>410.62</ele>
        <time>2019-03-10T09:14:30Z</time>
      </trkpt>
      <trkpt lat="43.44119" lon="5.8359">
        <ele>410.62</ele>
        <time>2019-03-10T09:14:31Z</time>
      </trkpt>
      <trkpt lat="43.44119" lon="5.83587">
        <ele>410.62</ele>
        <time>2019-03-10T09:14:32Z</time>
      </trkpt>
      <trkpt lat="43.44117" lon="5.83545">
        <ele>411.58</ele>
        <time>2019-03-10T09:14:44Z</time>
      </trkpt>
      <trkpt lat="43.44116" lon="5.83541">
        <ele>411.58</ele>
        <time>2019-03-10T09:14:45Z</time>
      </trkpt>
      <trkpt lat="43.44111" lon="5.83504">
        <ele>412.54</ele>
        <time>2019-03-10T09:14:56Z</time>
      </trkpt>
      <trkpt lat="43.44099" lon="5.83469">
        <ele>413.5</ele>
        <time>2019-03-10T09:15:10Z</time>
      </trkpt>
      <trkpt lat="43.44096" lon="5.83461">
        <ele>413.5</ele>
        <time>2019-03-10T09:15:13Z</time>
      </trkpt>
      <trkpt lat="43.44096" lon="5.83458">
        <ele>414.47</ele>
        <time>2019-03-10T09:15:14Z</time>
      </trkpt>
      <trkpt lat="43.44095" lon="5.83455">
        <ele>414.47</ele>
        <time>2019-03-10T09:15:15Z</time>
      </trkpt>
      <trkpt lat="43.44094" lon="5.83452">
        <ele>414.95</ele>
        <time>2019-03-10T09:15:16Z</time>
      </trkpt>
      <trkpt lat="43.44094" lon="5.83449">
        <ele>414.95</ele>
        <time>2019-03-10T09:15:17Z</time>
      </trkpt>
      <trkpt lat="43.44093" lon="5.83446">
        <ele>414.95</ele>
        <time>2019-03-10T09:15:18Z</time>
      </trkpt>
      <trkpt lat="43.44083" lon="5.83387">
        <ele>416.39</ele>
        <time>2019-03-10T09:15:35Z</time>
      </trkpt>
      <trkpt lat="43.44075" lon="5.83335">
        <ele>418.31</ele>
        <time>2019-03-10T09:15:51Z</time>
      </trkpt>
      <trkpt lat="43.44071" lon="5.83288">
        <ele>418.31</ele>
        <time>2019-03-10T09:16:05Z</time>
      </trkpt>
      <trkpt lat="43.4407" lon="5.83236">
        <ele>420.71</ele>
        <time>2019-03-10T09:16:20Z</time>
      </trkpt>
      <trkpt lat="43.44073" lon="5.83192">
        <ele>422.16</ele>
        <time>2019-03-10T09:16:34Z</time>
      </trkpt>
      <trkpt lat="43.44069" lon="5.8314">
        <ele>423.6</ele>
        <time>2019-03-10T09:16:49Z</time>
      </trkpt>
      <trkpt lat="43.44067" lon="5.83103">
        <ele>424.56</ele>
        <time>2019-03-10T09:17:02Z</time>
      </trkpt>
      <trkpt lat="43.44066" lon="5.83067">
        <ele>426.48</ele>
        <time>2019-03-10T09:17:15Z</time>
      </trkpt>
      <trkpt lat="43.44056" lon="5.83026">
        <ele>427.92</ele>
        <time>2019-03-10T09:17:30Z</time>
      </trkpt>
      <trkpt lat="43.44038" lon="5.82989">
        <ele>429.37</ele>
        <time>2019-03-10T09:17:43Z</time>
      </trkpt>
      <trkpt lat="43.44041" lon="5.82943">
        <ele>430.33</ele>
        <time>2019-03-10T09:17:57Z</time>
      </trkpt>
      <trkpt lat="43.44038" lon="5.829">
        <ele>433.21</ele>
        <time>2019-03-10T09:18:12Z</time>
      </trkpt>
      <trkpt lat="43.44024" lon="5.82881">
        <ele>434.17</ele>
        <time>2019-03-10T09:18:25Z</time>
      </trkpt>
      <trkpt lat="43.44009" lon="5.82879">
        <ele>434.17</ele>
        <time>2019-03-10T09:18:39Z</time>
      </trkpt>
      <trkpt lat="43.44005" lon="5.82877">
        <ele>434.17</ele>
        <time>2019-03-10T09:19:00Z</time>
      </trkpt>
      <trkpt lat="43.4401" lon="5.8288">
        <ele>433.21</ele>
        <time>2019-03-10T09:19:23Z</time>
      </trkpt>
      <trkpt lat="43.44008" lon="5.82879">
        <ele>432.73</ele>
        <time>2019-03-10T09:19:57Z</time>
      </trkpt>
      <trkpt lat="43.44008" lon="5.82876">
        <ele>432.73</ele>
        <time>2019-03-10T09:20:10Z</time>
      </trkpt>
      <trkpt lat="43.44007" lon="5.82874">
        <ele>432.73</ele>
        <time>2019-03-10T09:20:11Z</time>
      </trkpt>
      <trkpt lat="43.44006" lon="5.82872">
        <ele>432.73</ele>
        <time>2019-03-10T09:20:12Z</time>
      </trkpt>
      <trkpt lat="43.44006" lon="5.8287">
        <ele>432.73</ele>
        <time>2019-03-10T09:20:13Z</time>
      </trkpt>
      <trkpt lat="43.44005" lon="5.82868">
        <ele>432.73</ele>
        <time>2019-03-10T09:20:14Z</time>
      </trkpt>
      <trkpt lat="43.44005" lon="5.82865">
        <ele>434.17</ele>
        <time>2019-03-10T09:20:15Z</time>
      </trkpt>
      <trkpt lat="43.44" lon="5.82823">
        <ele>434.65</ele>
        <time>2019-03-10T09:20:30Z</time>
      </trkpt>
      <trkpt lat="43.44004" lon="5.82761">
        <ele>435.61</ele>
        <time>2019-03-10T09:20:50Z</time>
      </trkpt>
      <trkpt lat="43.43999" lon="5.82716">
        <ele>437.54</ele>
        <time>2019-03-10T09:21:04Z</time>
      </trkpt>
      <trkpt lat="43.43986" lon="5.82668">
        <ele>438.98</ele>
        <time>2019-03-10T09:21:20Z</time>
      </trkpt>
      <trkpt lat="43.43989" lon="5.82615">
        <ele>441.38</ele>
        <time>2019-03-10T09:21:37Z</time>
      </trkpt>
      <trkpt lat="43.4399" lon="5.82569">
        <ele>441.86</ele>
        <time>2019-03-10T09:21:52Z</time>
      </trkpt>
      <trkpt lat="43.43992" lon="5.82532">
        <ele>444.27</ele>
        <time>2019-03-10T09:22:06Z</time>
      </trkpt>
      <trkpt lat="43.43994" lon="5.82512">
        <ele>444.75</ele>
        <time>2019-03-10T09:22:13Z</time>
      </trkpt>
      <trkpt lat="43.43994" lon="5.82509">
        <ele>444.75</ele>
        <time>2019-03-10T09:22:14Z</time>
      </trkpt>
      <trkpt lat="43.43992" lon="5.82452">
        <ele>446.67</ele>
        <time>2019-03-10T09:22:33Z</time>
      </trkpt>
      <trkpt lat="43.43992" lon="5.82408">
        <ele>448.11</ele>
        <time>2019-03-10T09:22:50Z</time>
      </trkpt>
      <trkpt lat="43.44014" lon="5.82384">
        <ele>449.55</ele>
        <time>2019-03-10T09:23:05Z</time>
      </trkpt>
      <trkpt lat="43.44035" lon="5.82356">
        <ele>449.55</ele>
        <time>2019-03-10T09:23:19Z</time>
      </trkpt>
      <trkpt lat="43.44058" lon="5.82333">
        <ele>451</ele>
        <time>2019-03-10T09:23:31Z</time>
      </trkpt>
      <trkpt lat="43.44068" lon="5.82285">
        <ele>452.44</ele>
        <time>2019-03-10T09:23:47Z</time>
      </trkpt>
      <trkpt lat="43.44076" lon="5.82247">
        <ele>454.36</ele>
        <time>2019-03-10T09:24:02Z</time>
      </trkpt>
      <trkpt lat="43.44077" lon="5.82246">
        <ele>454.84</ele>
        <time>2019-03-10T09:24:03Z</time>
      </trkpt>
      <trkpt lat="43.44079" lon="5.82237">
        <ele>454.84</ele>
        <time>2019-03-10T09:24:07Z</time>
      </trkpt>
      <trkpt lat="43.44083" lon="5.82203">
        <ele>456.28</ele>
        <time>2019-03-10T09:24:18Z</time>
      </trkpt>
      <trkpt lat="43.44092" lon="5.82156">
        <ele>458.69</ele>
        <time>2019-03-10T09:24:32Z</time>
      </trkpt>
      <trkpt lat="43.44099" lon="5.82111">
        <ele>460.61</ele>
        <time>2019-03-10T09:24:48Z</time>
      </trkpt>
      <trkpt lat="43.44108" lon="5.82073">
        <ele>462.05</ele>
        <time>2019-03-10T09:25:01Z</time>
      </trkpt>
      <trkpt lat="43.44115" lon="5.82036">
        <ele>463.97</ele>
        <time>2019-03-10T09:25:14Z</time>
      </trkpt>
      <trkpt lat="43.44124" lon="5.82">
        <ele>466.86</ele>
        <time>2019-03-10T09:25:27Z</time>
      </trkpt>
      <trkpt lat="43.44133" lon="5.81963">
        <ele>468.3</ele>
        <time>2019-03-10T09:25:40Z</time>
      </trkpt>
      <trkpt lat="43.44133" lon="5.8196">
        <ele>468.78</ele>
        <time>2019-03-10T09:25:41Z</time>
      </trkpt>
      <trkpt lat="43.44134" lon="5.81957">
        <ele>468.78</ele>
        <time>2019-03-10T09:25:42Z</time>
      </trkpt>
      <trkpt lat="43.44134" lon="5.81955">
        <ele>468.78</ele>
        <time>2019-03-10T09:25:43Z</time>
      </trkpt>
      <trkpt lat="43.44134" lon="5.81952">
        <ele>468.78</ele>
        <time>2019-03-10T09:25:44Z</time>
      </trkpt>
      <trkpt lat="43.44134" lon="5.81949">
        <ele>469.26</ele>
        <time>2019-03-10T09:25:45Z</time>
      </trkpt>
      <trkpt lat="43.44134" lon="5.81946">
        <ele>469.26</ele>
        <time>2019-03-10T09:25:46Z</time>
      </trkpt>
      <trkpt lat="43.44135" lon="5.81943">
        <ele>469.26</ele>
        <time>2019-03-10T09:25:47Z</time>
      </trkpt>
      <trkpt lat="43.44135" lon="5.8194">
        <ele>469.26</ele>
        <time>2019-03-10T09:25:48Z</time>
      </trkpt>
      <trkpt lat="43.44135" lon="5.81937">
        <ele>469.26</ele>
        <time>2019-03-10T09:25:49Z</time>
      </trkpt>
      <trkpt lat="43.44135" lon="5.81934">
        <ele>469.26</ele>
        <time>2019-03-10T09:25:50Z</time>
      </trkpt>
      <trkpt lat="43.44135" lon="5.81931">
        <ele>469.74</ele>
        <time>2019-03-10T09:25:51Z</time>
      </trkpt>
      <trkpt lat="43.44136" lon="5.81928">
        <ele>469.74</ele>
        <time>2019-03-10T09:25:52Z</time>
      </trkpt>
      <trkpt lat="43.44136" lon="5.81925">
        <ele>469.74</ele>
        <time>2019-03-10T09:25:53Z</time>
      </trkpt>
      <trkpt lat="43.44136" lon="5.81922">
        <ele>470.22</ele>
        <time>2019-03-10T09:25:54Z</time>
      </trkpt>
      <trkpt lat="43.44136" lon="5.81902">
        <ele>471.18</ele>
        <time>2019-03-10T09:26:02Z</time>
      </trkpt>
      <trkpt lat="43.44135" lon="5.819">
        <ele>471.18</ele>
        <time>2019-03-10T09:26:03Z</time>
      </trkpt>
      <trkpt lat="43.44135" lon="5.81897">
        <ele>471.66</ele>
        <time>2019-03-10T09:26:04Z</time>
      </trkpt>
      <trkpt lat="43.44135" lon="5.81895">
        <ele>471.66</ele>
        <time>2019-03-10T09:26:05Z</time>
      </trkpt>
      <trkpt lat="43.44136" lon="5.81892">
        <ele>471.66</ele>
        <time>2019-03-10T09:26:06Z</time>
      </trkpt>
      <trkpt lat="43.44137" lon="5.8189">
        <ele>471.66</ele>
        <time>2019-03-10T09:26:07Z</time>
      </trkpt>
      <trkpt lat="43.44137" lon="5.81887">
        <ele>471.66</ele>
        <time>2019-03-10T09:26:08Z</time>
      </trkpt>
      <trkpt lat="43.44142" lon="5.81844">
        <ele>473.11</ele>
        <time>2019-03-10T09:26:23Z</time>
      </trkpt>
      <trkpt lat="43.44148" lon="5.81813">
        <ele>475.51</ele>
        <time>2019-03-10T09:26:35Z</time>
      </trkpt>
      <trkpt lat="43.44155" lon="5.81789">
        <ele>476.47</ele>
        <time>2019-03-10T09:26:49Z</time>
      </trkpt>
      <trkpt lat="43.44154" lon="5.81781">
        <ele>476.47</ele>
        <time>2019-03-10T09:27:05Z</time>
      </trkpt>
      <trkpt lat="43.44156" lon="5.81776">
        <ele>476.47</ele>
        <time>2019-03-10T09:27:40Z</time>
      </trkpt>
      <trkpt lat="43.44152" lon="5.81773">
        <ele>476.47</ele>
        <time>2019-03-10T09:28:20Z</time>
      </trkpt>
      <trkpt lat="43.44152" lon="5.81773">
        <ele>476.47</ele>
        <time>2019-03-10T09:28:50Z</time>
      </trkpt>
      <trkpt lat="43.44155" lon="5.81776">
        <ele>476.47</ele>
        <time>2019-03-10T09:29:21Z</time>
      </trkpt>
      <trkpt lat="43.44155" lon="5.81778">
        <ele>476.47</ele>
        <time>2019-03-10T09:29:54Z</time>
      </trkpt>
      <trkpt lat="43.44155" lon="5.8178">
        <ele>475.51</ele>
        <time>2019-03-10T09:30:20Z</time>
      </trkpt>
      <trkpt lat="43.44157" lon="5.81779">
        <ele>476.95</ele>
        <time>2019-03-10T09:30:35Z</time>
      </trkpt>
      <trkpt lat="43.44157" lon="5.81779">
        <ele>476.95</ele>
        <time>2019-03-10T09:31:03Z</time>
      </trkpt>
      <trkpt lat="43.44156" lon="5.81765">
        <ele>477.91</ele>
        <time>2019-03-10T09:31:19Z</time>
      </trkpt>
      <trkpt lat="43.44155" lon="5.81754">
        <ele>478.39</ele>
        <time>2019-03-10T09:31:25Z</time>
      </trkpt>
      <trkpt lat="43.44156" lon="5.81751">
        <ele>478.87</ele>
        <time>2019-03-10T09:31:27Z</time>
      </trkpt>
      <trkpt lat="43.44155" lon="5.8173">
        <ele>479.84</ele>
        <time>2019-03-10T09:31:38Z</time>
      </trkpt>
      <trkpt lat="43.44155" lon="5.81728">
        <ele>479.84</ele>
        <time>2019-03-10T09:31:39Z</time>
      </trkpt>
      <trkpt lat="43.44156" lon="5.81726">
        <ele>479.84</ele>
        <time>2019-03-10T09:31:40Z</time>
      </trkpt>
      <trkpt lat="43.44156" lon="5.81723">
        <ele>479.84</ele>
        <time>2019-03-10T09:31:41Z</time>
      </trkpt>
      <trkpt lat="43.44156" lon="5.81721">
        <ele>480.32</ele>
        <time>2019-03-10T09:31:42Z</time>
      </trkpt>
      <trkpt lat="43.44156" lon="5.81719">
        <ele>480.32</ele>
        <time>2019-03-10T09:31:43Z</time>
      </trkpt>
      <trkpt lat="43.44161" lon="5.81696">
        <ele>482.72</ele>
        <time>2019-03-10T09:31:51Z</time>
      </trkpt>
      <trkpt lat="43.44167" lon="5.81665">
        <ele>484.64</ele>
        <time>2019-03-10T09:32:04Z</time>
      </trkpt>
      <trkpt lat="43.44181" lon="5.81629">
        <ele>485.12</ele>
        <time>2019-03-10T09:32:19Z</time>
      </trkpt>
      <trkpt lat="43.44189" lon="5.81611">
        <ele>486.08</ele>
        <time>2019-03-10T09:32:27Z</time>
      </trkpt>
      <trkpt lat="43.4419" lon="5.81609">
        <ele>486.08</ele>
        <time>2019-03-10T09:32:28Z</time>
      </trkpt>
      <trkpt lat="43.44208" lon="5.81571">
        <ele>488.01</ele>
        <time>2019-03-10T09:32:46Z</time>
      </trkpt>
      <trkpt lat="43.44217" lon="5.81547">
        <ele>490.41</ele>
        <time>2019-03-10T09:32:58Z</time>
      </trkpt>
      <trkpt lat="43.44222" lon="5.81521">
        <ele>492.81</ele>
        <time>2019-03-10T09:33:12Z</time>
      </trkpt>
      <trkpt lat="43.44223" lon="5.81492">
        <ele>495.7</ele>
        <time>2019-03-10T09:33:27Z</time>
      </trkpt>
      <trkpt lat="43.44229" lon="5.81466">
        <ele>499.06</ele>
        <time>2019-03-10T09:33:40Z</time>
      </trkpt>
      <trkpt lat="43.44239" lon="5.81429">
        <ele>500.98</ele>
        <time>2019-03-10T09:33:56Z</time>
      </trkpt>
      <trkpt lat="43.44246" lon="5.81397">
        <ele>502.91</ele>
        <time>2019-03-10T09:34:11Z</time>
      </trkpt>
      <trkpt lat="43.44254" lon="5.81364">
        <ele>505.31</ele>
        <time>2019-03-10T09:34:27Z</time>
      </trkpt>
      <trkpt lat="43.44263" lon="5.81327">
        <ele>507.71</ele>
        <time>2019-03-10T09:34:44Z</time>
      </trkpt>
      <trkpt lat="43.4427" lon="5.81298">
        <ele>511.08</ele>
        <time>2019-03-10T09:34:58Z</time>
      </trkpt>
      <trkpt lat="43.44274" lon="5.81293">
        <ele>511.08</ele>
        <time>2019-03-10T09:35:02Z</time>
      </trkpt>
      <trkpt lat="43.44275" lon="5.81292">
        <ele>511.08</ele>
        <time>2019-03-10T09:35:03Z</time>
      </trkpt>
      <trkpt lat="43.4428" lon="5.81282">
        <ele>512.04</ele>
        <time>2019-03-10T09:35:17Z</time>
      </trkpt>
      <trkpt lat="43.44289" lon="5.8127">
        <ele>513</ele>
        <time>2019-03-10T09:35:29Z</time>
      </trkpt>
      <trkpt lat="43.44305" lon="5.81259">
        <ele>514.92</ele>
        <time>2019-03-10T09:35:46Z</time>
      </trkpt>
      <trkpt lat="43.44314" lon="5.81247">
        <ele>515.88</ele>
        <time>2019-03-10T09:35:59Z</time>
      </trkpt>
      <trkpt lat="43.44314" lon="5.81246">
        <ele>515.88</ele>
        <time>2019-03-10T09:36:00Z</time>
      </trkpt>
      <trkpt lat="43.44315" lon="5.81233">
        <ele>516.37</ele>
        <time>2019-03-10T09:36:14Z</time>
      </trkpt>
      <trkpt lat="43.44314" lon="5.81228">
        <ele>517.81</ele>
        <time>2019-03-10T09:36:31Z</time>
      </trkpt>
      <trkpt lat="43.44314" lon="5.81229">
        <ele>517.81</ele>
        <time>2019-03-10T09:36:54Z</time>
      </trkpt>
      <trkpt lat="43.44314" lon="5.81227">
        <ele>518.29</ele>
        <time>2019-03-10T09:37:11Z</time>
      </trkpt>
      <trkpt lat="43.44314" lon="5.81226">
        <ele>517.81</ele>
        <time>2019-03-10T09:37:33Z</time>
      </trkpt>
      <trkpt lat="43.44315" lon="5.81226">
        <ele>516.85</ele>
        <time>2019-03-10T09:37:57Z</time>
      </trkpt>
      <trkpt lat="43.44314" lon="5.81226">
        <ele>517.81</ele>
        <time>2019-03-10T09:38:16Z</time>
      </trkpt>
      <trkpt lat="43.44316" lon="5.81232">
        <ele>516.85</ele>
        <time>2019-03-10T09:38:29Z</time>
      </trkpt>
      <trkpt lat="43.44313" lon="5.81227">
        <ele>516.85</ele>
        <time>2019-03-10T09:38:46Z</time>
      </trkpt>
      <trkpt lat="43.44306" lon="5.81219">
        <ele>517.81</ele>
        <time>2019-03-10T09:38:59Z</time>
      </trkpt>
      <trkpt lat="43.44299" lon="5.81205">
        <ele>520.69</ele>
        <time>2019-03-10T09:39:16Z</time>
      </trkpt>
      <trkpt lat="43.44291" lon="5.8119">
        <ele>521.17</ele>
        <time>2019-03-10T09:39:31Z</time>
      </trkpt>
      <trkpt lat="43.44287" lon="5.81179">
        <ele>522.13</ele>
        <time>2019-03-10T09:39:40Z</time>
      </trkpt>
      <trkpt lat="43.44277" lon="5.81162">
        <ele>525.02</ele>
        <time>2019-03-10T09:39:57Z</time>
      </trkpt>
      <trkpt lat="43.44265" lon="5.81148">
        <ele>526.46</ele>
        <time>2019-03-10T09:40:13Z</time>
      </trkpt>
      <trkpt lat="43.44266" lon="5.81144">
        <ele>526.46</ele>
        <time>2019-03-10T09:40:16Z</time>
      </trkpt>
      <trkpt lat="43.44267" lon="5.81143">
        <ele>526.46</ele>
        <time>2019-03-10T09:40:17Z</time>
      </trkpt>
      <trkpt lat="43.44268" lon="5.81141">
        <ele>526.46</ele>
        <time>2019-03-10T09:40:18Z</time>
      </trkpt>
      <trkpt lat="43.44275" lon="5.81138">
        <ele>526.94</ele>
        <time>2019-03-10T09:40:26Z</time>
      </trkpt>
      <trkpt lat="43.44293" lon="5.81134">
        <ele>529.82</ele>
        <time>2019-03-10T09:40:44Z</time>
      </trkpt>
      <trkpt lat="43.44296" lon="5.81132">
        <ele>529.82</ele>
        <time>2019-03-10T09:40:48Z</time>
      </trkpt>
      <trkpt lat="43.44303" lon="5.81128">
        <ele>530.3</ele>
        <time>2019-03-10T09:40:55Z</time>
      </trkpt>
      <trkpt lat="43.44316" lon="5.81131">
        <ele>532.71</ele>
        <time>2019-03-10T09:41:09Z</time>
      </trkpt>
      <trkpt lat="43.44332" lon="5.81138">
        <ele>533.67</ele>
        <time>2019-03-10T09:41:23Z</time>
      </trkpt>
      <trkpt lat="43.44342" lon="5.81139">
        <ele>535.11</ele>
        <time>2019-03-10T09:41:33Z</time>
      </trkpt>
      <trkpt lat="43.44355" lon="5.81141">
        <ele>536.07</ele>
        <time>2019-03-10T09:41:47Z</time>
      </trkpt>
      <trkpt lat="43.44369" lon="5.81138">
        <ele>537.51</ele>
        <time>2019-03-10T09:42:02Z</time>
      </trkpt>
      <trkpt lat="43.44372" lon="5.81136">
        <ele>537.99</ele>
        <time>2019-03-10T09:42:05Z</time>
      </trkpt>
      <trkpt lat="43.44387" lon="5.81132">
        <ele>539.44</ele>
        <time>2019-03-10T09:42:19Z</time>
      </trkpt>
      <trkpt lat="43.44398" lon="5.81126">
        <ele>539.92</ele>
        <time>2019-03-10T09:42:33Z</time>
      </trkpt>
      <trkpt lat="43.44405" lon="5.81122">
        <ele>540.88</ele>
        <time>2019-03-10T09:42:41Z</time>
      </trkpt>
      <trkpt lat="43.44414" lon="5.8111">
        <ele>542.32</ele>
        <time>2019-03-10T09:42:54Z</time>
      </trkpt>
      <trkpt lat="43.44416" lon="5.81102">
        <ele>542.32</ele>
        <time>2019-03-10T09:43:01Z</time>
      </trkpt>
      <trkpt lat="43.44417" lon="5.81081">
        <ele>543.76</ele>
        <time>2019-03-10T09:43:18Z</time>
      </trkpt>
      <trkpt lat="43.44419" lon="5.81064">
        <ele>544.72</ele>
        <time>2019-03-10T09:43:29Z</time>
      </trkpt>
      <trkpt lat="43.44427" lon="5.81025">
        <ele>546.65</ele>
        <time>2019-03-10T09:43:44Z</time>
      </trkpt>
      <trkpt lat="43.44439" lon="5.80995">
        <ele>548.57</ele>
        <time>2019-03-10T09:43:59Z</time>
      </trkpt>
      <trkpt lat="43.44447" lon="5.80972">
        <ele>550.97</ele>
        <time>2019-03-10T09:44:13Z</time>
      </trkpt>
      <trkpt lat="43.4445" lon="5.80955">
        <ele>552.9</ele>
        <time>2019-03-10T09:44:23Z</time>
      </trkpt>
      <trkpt lat="43.4445" lon="5.80953">
        <ele>552.9</ele>
        <time>2019-03-10T09:44:24Z</time>
      </trkpt>
      <trkpt lat="43.44456" lon="5.80935">
        <ele>554.34</ele>
        <time>2019-03-10T09:44:33Z</time>
      </trkpt>
      <trkpt lat="43.44458" lon="5.8093">
        <ele>554.34</ele>
        <time>2019-03-10T09:44:36Z</time>
      </trkpt>
      <trkpt lat="43.44459" lon="5.80929">
        <ele>554.82</ele>
        <time>2019-03-10T09:44:37Z</time>
      </trkpt>
      <trkpt lat="43.44471" lon="5.809">
        <ele>557.7</ele>
        <time>2019-03-10T09:44:52Z</time>
      </trkpt>
      <trkpt lat="43.44484" lon="5.80875">
        <ele>560.59</ele>
        <time>2019-03-10T09:45:08Z</time>
      </trkpt>
      <trkpt lat="43.44485" lon="5.80871">
        <ele>561.55</ele>
        <time>2019-03-10T09:45:10Z</time>
      </trkpt>
      <trkpt lat="43.44487" lon="5.8087">
        <ele>562.03</ele>
        <time>2019-03-10T09:45:11Z</time>
      </trkpt>
      <trkpt lat="43.44488" lon="5.80868">
        <ele>562.51</ele>
        <time>2019-03-10T09:45:12Z</time>
      </trkpt>
      <trkpt lat="43.44489" lon="5.80867">
        <ele>562.51</ele>
        <time>2019-03-10T09:45:13Z</time>
      </trkpt>
      <trkpt lat="43.44489" lon="5.80865">
        <ele>562.99</ele>
        <time>2019-03-10T09:45:14Z</time>
      </trkpt>
      <trkpt lat="43.44503" lon="5.80839">
        <ele>565.39</ele>
        <time>2019-03-10T09:45:29Z</time>
      </trkpt>
      <trkpt lat="43.44509" lon="5.8082">
        <ele>566.83</ele>
        <time>2019-03-10T09:45:37Z</time>
      </trkpt>
      <trkpt lat="43.44517" lon="5.80795">
        <ele>567.8</ele>
        <time>2019-03-10T09:45:53Z</time>
      </trkpt>
      <trkpt lat="43.44529" lon="5.80771">
        <ele>567.8</ele>
        <time>2019-03-10T09:46:06Z</time>
      </trkpt>
      <trkpt lat="43.4453" lon="5.80768">
        <ele>566.35</ele>
        <time>2019-03-10T09:46:07Z</time>
      </trkpt>
      <trkpt lat="43.44531" lon="5.80763">
        <ele>566.35</ele>
        <time>2019-03-10T09:46:08Z</time>
      </trkpt>
      <trkpt lat="43.44533" lon="5.80751">
        <ele>565.87</ele>
        <time>2019-03-10T09:46:10Z</time>
      </trkpt>
      <trkpt lat="43.44533" lon="5.80745">
        <ele>565.39</ele>
        <time>2019-03-10T09:46:11Z</time>
      </trkpt>
      <trkpt lat="43.44534" lon="5.80736">
        <ele>565.39</ele>
        <time>2019-03-10T09:46:12Z</time>
      </trkpt>
      <trkpt lat="43.44538" lon="5.80711">
        <ele>563.95</ele>
        <time>2019-03-10T09:46:15Z</time>
      </trkpt>
      <trkpt lat="43.44541" lon="5.80696">
        <ele>564.43</ele>
        <time>2019-03-10T09:46:17Z</time>
      </trkpt>
      <trkpt lat="43.44542" lon="5.80689">
        <ele>564.43</ele>
        <time>2019-03-10T09:46:18Z</time>
      </trkpt>
      <trkpt lat="43.44543" lon="5.80682">
        <ele>564.43</ele>
        <time>2019-03-10T09:46:19Z</time>
      </trkpt>
      <trkpt lat="43.44543" lon="5.80674">
        <ele>564.43</ele>
        <time>2019-03-10T09:46:20Z</time>
      </trkpt>
      <trkpt lat="43.44543" lon="5.80668">
        <ele>564.43</ele>
        <time>2019-03-10T09:46:21Z</time>
      </trkpt>
      <trkpt lat="43.44544" lon="5.80663">
        <ele>564.43</ele>
        <time>2019-03-10T09:46:22Z</time>
      </trkpt>
      <trkpt lat="43.44544" lon="5.80658">
        <ele>564.43</ele>
        <time>2019-03-10T09:46:23Z</time>
      </trkpt>
      <trkpt lat="43.44544" lon="5.80654">
        <ele>564.43</ele>
        <time>2019-03-10T09:46:24Z</time>
      </trkpt>
      <trkpt lat="43.44544" lon="5.80642">
        <ele>565.39</ele>
        <time>2019-03-10T09:46:28Z</time>
      </trkpt>
      <trkpt lat="43.44547" lon="5.80615">
        <ele>568.76</ele>
        <time>2019-03-10T09:46:38Z</time>
      </trkpt>
      <trkpt lat="43.44549" lon="5.80591">
        <ele>570.2</ele>
        <time>2019-03-10T09:46:51Z</time>
      </trkpt>
      <trkpt lat="43.44547" lon="5.80572">
        <ele>571.16</ele>
        <time>2019-03-10T09:47:04Z</time>
      </trkpt>
      <trkpt lat="43.44551" lon="5.8055">
        <ele>572.6</ele>
        <time>2019-03-10T09:47:21Z</time>
      </trkpt>
      <trkpt lat="43.44555" lon="5.80542">
        <ele>573.08</ele>
        <time>2019-03-10T09:47:26Z</time>
      </trkpt>
      <trkpt lat="43.44556" lon="5.80541">
        <ele>573.08</ele>
        <time>2019-03-10T09:47:27Z</time>
      </trkpt>
      <trkpt lat="43.44566" lon="5.80527">
        <ele>575.49</ele>
        <time>2019-03-10T09:47:43Z</time>
      </trkpt>
      <trkpt lat="43.44568" lon="5.80523">
        <ele>575.49</ele>
        <time>2019-03-10T09:47:47Z</time>
      </trkpt>
      <trkpt lat="43.4457" lon="5.80511">
        <ele>576.45</ele>
        <time>2019-03-10T09:47:59Z</time>
      </trkpt>
      <trkpt lat="43.44573" lon="5.80496">
        <ele>576.93</ele>
        <time>2019-03-10T09:48:12Z</time>
      </trkpt>
      <trkpt lat="43.44574" lon="5.8048">
        <ele>578.37</ele>
        <time>2019-03-10T09:48:27Z</time>
      </trkpt>
      <trkpt lat="43.44583" lon="5.80462">
        <ele>579.81</ele>
        <time>2019-03-10T09:48:41Z</time>
      </trkpt>
      <trkpt lat="43.44597" lon="5.80447">
        <ele>580.77</ele>
        <time>2019-03-10T09:48:55Z</time>
      </trkpt>
      <trkpt lat="43.44609" lon="5.80434">
        <ele>582.22</ele>
        <time>2019-03-10T09:49:10Z</time>
      </trkpt>
      <trkpt lat="43.44616" lon="5.80415">
        <ele>582.7</ele>
        <time>2019-03-10T09:49:25Z</time>
      </trkpt>
      <trkpt lat="43.44617" lon="5.80393">
        <ele>583.66</ele>
        <time>2019-03-10T09:49:41Z</time>
      </trkpt>
      <trkpt lat="43.4462" lon="5.80373">
        <ele>584.62</ele>
        <time>2019-03-10T09:49:52Z</time>
      </trkpt>
      <trkpt lat="43.44621" lon="5.80352">
        <ele>586.06</ele>
        <time>2019-03-10T09:50:07Z</time>
      </trkpt>
      <trkpt lat="43.44631" lon="5.80333">
        <ele>586.54</ele>
        <time>2019-03-10T09:50:22Z</time>
      </trkpt>
      <trkpt lat="43.44634" lon="5.80331">
        <ele>587.5</ele>
        <time>2019-03-10T09:50:25Z</time>
      </trkpt>
      <trkpt lat="43.44651" lon="5.80316">
        <ele>589.43</ele>
        <time>2019-03-10T09:50:41Z</time>
      </trkpt>
      <trkpt lat="43.44661" lon="5.8031">
        <ele>590.39</ele>
        <time>2019-03-10T09:50:57Z</time>
      </trkpt>
      <trkpt lat="43.44666" lon="5.80297">
        <ele>590.87</ele>
        <time>2019-03-10T09:51:11Z</time>
      </trkpt>
      <trkpt lat="43.44668" lon="5.8029">
        <ele>591.35</ele>
        <time>2019-03-10T09:51:16Z</time>
      </trkpt>
      <trkpt lat="43.44671" lon="5.80272">
        <ele>594.23</ele>
        <time>2019-03-10T09:51:31Z</time>
      </trkpt>
      <trkpt lat="43.44672" lon="5.80268">
        <ele>594.23</ele>
        <time>2019-03-10T09:51:34Z</time>
      </trkpt>
      <trkpt lat="43.44678" lon="5.80251">
        <ele>595.19</ele>
        <time>2019-03-10T09:51:47Z</time>
      </trkpt>
      <trkpt lat="43.44684" lon="5.80238">
        <ele>596.15</ele>
        <time>2019-03-10T09:51:58Z</time>
      </trkpt>
      <trkpt lat="43.44692" lon="5.80219">
        <ele>599.04</ele>
        <time>2019-03-10T09:52:14Z</time>
      </trkpt>
      <trkpt lat="43.44704" lon="5.80198">
        <ele>601.44</ele>
        <time>2019-03-10T09:52:32Z</time>
      </trkpt>
      <trkpt lat="43.44713" lon="5.80182">
        <ele>603.36</ele>
        <time>2019-03-10T09:52:47Z</time>
      </trkpt>
      <trkpt lat="43.44714" lon="5.80178">
        <ele>605.29</ele>
        <time>2019-03-10T09:52:50Z</time>
      </trkpt>
      <trkpt lat="43.44722" lon="5.80169">
        <ele>605.77</ele>
        <time>2019-03-10T09:53:04Z</time>
      </trkpt>
      <trkpt lat="43.44736" lon="5.80165">
        <ele>605.77</ele>
        <time>2019-03-10T09:53:15Z</time>
      </trkpt>
      <trkpt lat="43.44739" lon="5.80166">
        <ele>606.25</ele>
        <time>2019-03-10T09:53:18Z</time>
      </trkpt>
      <trkpt lat="43.44755" lon="5.80184">
        <ele>609.61</ele>
        <time>2019-03-10T09:53:33Z</time>
      </trkpt>
      <trkpt lat="43.44766" lon="5.80199">
        <ele>612.5</ele>
        <time>2019-03-10T09:53:42Z</time>
      </trkpt>
      <trkpt lat="43.44768" lon="5.80199">
        <ele>612.98</ele>
        <time>2019-03-10T09:53:43Z</time>
      </trkpt>
      <trkpt lat="43.44769" lon="5.80198">
        <ele>612.98</ele>
        <time>2019-03-10T09:53:44Z</time>
      </trkpt>
      <trkpt lat="43.44771" lon="5.80198">
        <ele>613.46</ele>
        <time>2019-03-10T09:53:45Z</time>
      </trkpt>
      <trkpt lat="43.44773" lon="5.80197">
        <ele>613.46</ele>
        <time>2019-03-10T09:53:46Z</time>
      </trkpt>
      <trkpt lat="43.44774" lon="5.80196">
        <ele>613.94</ele>
        <time>2019-03-10T09:53:47Z</time>
      </trkpt>
      <trkpt lat="43.44775" lon="5.80196">
        <ele>614.42</ele>
        <time>2019-03-10T09:53:48Z</time>
      </trkpt>
      <trkpt lat="43.4478" lon="5.80194">
        <ele>613.94</ele>
        <time>2019-03-10T09:53:52Z</time>
      </trkpt>
      <trkpt lat="43.44782" lon="5.80192">
        <ele>613.94</ele>
        <time>2019-03-10T09:53:53Z</time>
      </trkpt>
      <trkpt lat="43.44795" lon="5.80169">
        <ele>616.82</ele>
        <time>2019-03-10T09:54:09Z</time>
      </trkpt>
      <trkpt lat="43.44801" lon="5.80152">
        <ele>618.26</ele>
        <time>2019-03-10T09:54:22Z</time>
      </trkpt>
      <trkpt lat="43.44809" lon="5.80125">
        <ele>620.19</ele>
        <time>2019-03-10T09:54:37Z</time>
      </trkpt>
      <trkpt lat="43.44812" lon="5.80111">
        <ele>621.15</ele>
        <time>2019-03-10T09:54:51Z</time>
      </trkpt>
      <trkpt lat="43.44813" lon="5.80105">
        <ele>622.11</ele>
        <time>2019-03-10T09:55:03Z</time>
      </trkpt>
      <trkpt lat="43.44813" lon="5.80102">
        <ele>621.15</ele>
        <time>2019-03-10T09:55:09Z</time>
      </trkpt>
      <trkpt lat="43.44813" lon="5.80106">
        <ele>621.15</ele>
        <time>2019-03-10T09:55:23Z</time>
      </trkpt>
      <trkpt lat="43.44814" lon="5.80102">
        <ele>620.19</ele>
        <time>2019-03-10T09:56:01Z</time>
      </trkpt>
      <trkpt lat="43.44812" lon="5.80103">
        <ele>619.71</ele>
        <time>2019-03-10T09:56:45Z</time>
      </trkpt>
      <trkpt lat="43.44812" lon="5.80105">
        <ele>621.15</ele>
        <time>2019-03-10T09:57:17Z</time>
      </trkpt>
      <trkpt lat="43.44814" lon="5.80105">
        <ele>619.71</ele>
        <time>2019-03-10T09:57:51Z</time>
      </trkpt>
      <trkpt lat="43.44812" lon="5.80105">
        <ele>620.67</ele>
        <time>2019-03-10T09:58:25Z</time>
      </trkpt>
      <trkpt lat="43.44812" lon="5.80107">
        <ele>619.71</ele>
        <time>2019-03-10T09:58:52Z</time>
      </trkpt>
      <trkpt lat="43.44811" lon="5.80108">
        <ele>619.71</ele>
        <time>2019-03-10T09:59:01Z</time>
      </trkpt>
      <trkpt lat="43.44811" lon="5.80104">
        <ele>619.23</ele>
        <time>2019-03-10T09:59:40Z</time>
      </trkpt>
      <trkpt lat="43.44812" lon="5.80106">
        <ele>619.23</ele>
        <time>2019-03-10T10:00:12Z</time>
      </trkpt>
      <trkpt lat="43.44812" lon="5.80107">
        <ele>620.19</ele>
        <time>2019-03-10T10:00:41Z</time>
      </trkpt>
      <trkpt lat="43.44815" lon="5.80108">
        <ele>619.23</ele>
        <time>2019-03-10T10:00:51Z</time>
      </trkpt>
      <trkpt lat="43.44817" lon="5.80106">
        <ele>619.23</ele>
        <time>2019-03-10T10:01:02Z</time>
      </trkpt>
      <trkpt lat="43.44814" lon="5.80105">
        <ele>619.23</ele>
        <time>2019-03-10T10:01:17Z</time>
      </trkpt>
      <trkpt lat="43.44819" lon="5.80109">
        <ele>618.75</ele>
        <time>2019-03-10T10:01:29Z</time>
      </trkpt>
      <trkpt lat="43.4482" lon="5.8011">
        <ele>618.75</ele>
        <time>2019-03-10T10:01:31Z</time>
      </trkpt>
      <trkpt lat="43.44821" lon="5.80111">
        <ele>618.75</ele>
        <time>2019-03-10T10:01:32Z</time>
      </trkpt>
      <trkpt lat="43.44823" lon="5.80112">
        <ele>620.19</ele>
        <time>2019-03-10T10:01:33Z</time>
      </trkpt>
      <trkpt lat="43.44824" lon="5.80114">
        <ele>621.15</ele>
        <time>2019-03-10T10:01:34Z</time>
      </trkpt>
      <trkpt lat="43.44826" lon="5.80116">
        <ele>621.15</ele>
        <time>2019-03-10T10:01:35Z</time>
      </trkpt>
      <trkpt lat="43.44827" lon="5.80117">
        <ele>620.19</ele>
        <time>2019-03-10T10:01:36Z</time>
      </trkpt>
      <trkpt lat="43.44834" lon="5.80126">
        <ele>617.78</ele>
        <time>2019-03-10T10:01:40Z</time>
      </trkpt>
      <trkpt lat="43.44834" lon="5.80159">
        <ele>617.78</ele>
        <time>2019-03-10T10:01:53Z</time>
      </trkpt>
      <trkpt lat="43.44833" lon="5.80173">
        <ele>620.19</ele>
        <time>2019-03-10T10:01:59Z</time>
      </trkpt>
      <trkpt lat="43.44829" lon="5.80221">
        <ele>620.67</ele>
        <time>2019-03-10T10:02:16Z</time>
      </trkpt>
      <trkpt lat="43.44836" lon="5.80268">
        <ele>623.07</ele>
        <time>2019-03-10T10:02:30Z</time>
      </trkpt>
      <trkpt lat="43.44838" lon="5.80296">
        <ele>621.63</ele>
        <time>2019-03-10T10:02:37Z</time>
      </trkpt>
      <trkpt lat="43.44832" lon="5.80347">
        <ele>617.3</ele>
        <time>2019-03-10T10:02:48Z</time>
      </trkpt>
      <trkpt lat="43.44833" lon="5.80358">
        <ele>616.82</ele>
        <time>2019-03-10T10:02:50Z</time>
      </trkpt>
      <trkpt lat="43.44832" lon="5.80363">
        <ele>616.82</ele>
        <time>2019-03-10T10:02:51Z</time>
      </trkpt>
      <trkpt lat="43.44832" lon="5.80369">
        <ele>616.82</ele>
        <time>2019-03-10T10:02:52Z</time>
      </trkpt>
      <trkpt lat="43.44831" lon="5.80375">
        <ele>616.34</ele>
        <time>2019-03-10T10:02:53Z</time>
      </trkpt>
      <trkpt lat="43.4483" lon="5.80381">
        <ele>615.86</ele>
        <time>2019-03-10T10:02:54Z</time>
      </trkpt>
      <trkpt lat="43.4483" lon="5.80386">
        <ele>615.38</ele>
        <time>2019-03-10T10:02:55Z</time>
      </trkpt>
      <trkpt lat="43.44829" lon="5.80392">
        <ele>615.38</ele>
        <time>2019-03-10T10:02:56Z</time>
      </trkpt>
      <trkpt lat="43.44828" lon="5.80398">
        <ele>614.9</ele>
        <time>2019-03-10T10:02:57Z</time>
      </trkpt>
      <trkpt lat="43.44821" lon="5.8043">
        <ele>612.5</ele>
        <time>2019-03-10T10:03:03Z</time>
      </trkpt>
      <trkpt lat="43.4482" lon="5.80437">
        <ele>612.5</ele>
        <time>2019-03-10T10:03:04Z</time>
      </trkpt>
      <trkpt lat="43.4482" lon="5.80443">
        <ele>612.02</ele>
        <time>2019-03-10T10:03:05Z</time>
      </trkpt>
      <trkpt lat="43.4482" lon="5.80449">
        <ele>612.02</ele>
        <time>2019-03-10T10:03:06Z</time>
      </trkpt>
      <trkpt lat="43.4482" lon="5.80456">
        <ele>611.06</ele>
        <time>2019-03-10T10:03:07Z</time>
      </trkpt>
      <trkpt lat="43.44821" lon="5.8048">
        <ele>610.09</ele>
        <time>2019-03-10T10:03:10Z</time>
      </trkpt>
      <trkpt lat="43.44823" lon="5.80488">
        <ele>610.09</ele>
        <time>2019-03-10T10:03:11Z</time>
      </trkpt>
      <trkpt lat="43.44824" lon="5.80496">
        <ele>610.09</ele>
        <time>2019-03-10T10:03:12Z</time>
      </trkpt>
      <trkpt lat="43.44826" lon="5.80503">
        <ele>609.61</ele>
        <time>2019-03-10T10:03:13Z</time>
      </trkpt>
      <trkpt lat="43.44828" lon="5.8051">
        <ele>609.61</ele>
        <time>2019-03-10T10:03:14Z</time>
      </trkpt>
      <trkpt lat="43.44831" lon="5.80516">
        <ele>609.61</ele>
        <time>2019-03-10T10:03:15Z</time>
      </trkpt>
      <trkpt lat="43.44841" lon="5.80565">
        <ele>609.61</ele>
        <time>2019-03-10T10:03:24Z</time>
      </trkpt>
      <trkpt lat="43.44848" lon="5.80615">
        <ele>610.57</ele>
        <time>2019-03-10T10:03:32Z</time>
      </trkpt>
      <trkpt lat="43.44854" lon="5.80689">
        <ele>611.54</ele>
        <time>2019-03-10T10:03:44Z</time>
      </trkpt>
      <trkpt lat="43.44855" lon="5.80725">
        <ele>611.54</ele>
        <time>2019-03-10T10:03:50Z</time>
      </trkpt>
      <trkpt lat="43.44854" lon="5.80769">
        <ele>609.61</ele>
        <time>2019-03-10T10:04:00Z</time>
      </trkpt>
      <trkpt lat="43.44848" lon="5.80817">
        <ele>608.17</ele>
        <time>2019-03-10T10:04:12Z</time>
      </trkpt>
      <trkpt lat="43.44847" lon="5.80831">
        <ele>606.73</ele>
        <time>2019-03-10T10:04:23Z</time>
      </trkpt>
      <trkpt lat="43.44848" lon="5.8083">
        <ele>607.69</ele>
        <time>2019-03-10T10:04:31Z</time>
      </trkpt>
      <trkpt lat="43.44851" lon="5.8083">
        <ele>607.21</ele>
        <time>2019-03-10T10:04:45Z</time>
      </trkpt>
      <trkpt lat="43.44851" lon="5.80829">
        <ele>607.21</ele>
        <time>2019-03-10T10:04:46Z</time>
      </trkpt>
      <trkpt lat="43.44852" lon="5.80828">
        <ele>607.21</ele>
        <time>2019-03-10T10:04:47Z</time>
      </trkpt>
      <trkpt lat="43.44857" lon="5.80825">
        <ele>607.21</ele>
        <time>2019-03-10T10:04:51Z</time>
      </trkpt>
      <trkpt lat="43.44858" lon="5.80825">
        <ele>607.21</ele>
        <time>2019-03-10T10:04:52Z</time>
      </trkpt>
      <trkpt lat="43.44859" lon="5.80826">
        <ele>607.21</ele>
        <time>2019-03-10T10:04:53Z</time>
      </trkpt>
      <trkpt lat="43.4486" lon="5.80827">
        <ele>607.21</ele>
        <time>2019-03-10T10:04:54Z</time>
      </trkpt>
      <trkpt lat="43.44861" lon="5.80829">
        <ele>607.21</ele>
        <time>2019-03-10T10:04:55Z</time>
      </trkpt>
      <trkpt lat="43.44861" lon="5.80835">
        <ele>607.21</ele>
        <time>2019-03-10T10:05:06Z</time>
      </trkpt>
      <trkpt lat="43.44863" lon="5.80833">
        <ele>607.21</ele>
        <time>2019-03-10T10:05:20Z</time>
      </trkpt>
      <trkpt lat="43.4486" lon="5.80829">
        <ele>607.21</ele>
        <time>2019-03-10T10:05:26Z</time>
      </trkpt>
      <trkpt lat="43.44858" lon="5.80828">
        <ele>606.25</ele>
        <time>2019-03-10T10:05:28Z</time>
      </trkpt>
      <trkpt lat="43.44857" lon="5.80828">
        <ele>605.29</ele>
        <time>2019-03-10T10:05:29Z</time>
      </trkpt>
      <trkpt lat="43.44854" lon="5.80828">
        <ele>606.73</ele>
        <time>2019-03-10T10:05:32Z</time>
      </trkpt>
      <trkpt lat="43.44853" lon="5.80828">
        <ele>606.73</ele>
        <time>2019-03-10T10:05:33Z</time>
      </trkpt>
      <trkpt lat="43.44852" lon="5.80829">
        <ele>606.73</ele>
        <time>2019-03-10T10:05:34Z</time>
      </trkpt>
      <trkpt lat="43.44851" lon="5.8083">
        <ele>606.73</ele>
        <time>2019-03-10T10:05:35Z</time>
      </trkpt>
      <trkpt lat="43.4485" lon="5.80831">
        <ele>606.73</ele>
        <time>2019-03-10T10:05:36Z</time>
      </trkpt>
      <trkpt lat="43.44849" lon="5.80831">
        <ele>607.69</ele>
        <time>2019-03-10T10:05:51Z</time>
      </trkpt>
      <trkpt lat="43.4485" lon="5.80833">
        <ele>606.25</ele>
        <time>2019-03-10T10:06:02Z</time>
      </trkpt>
      <trkpt lat="43.4485" lon="5.80831">
        <ele>605.77</ele>
        <time>2019-03-10T10:06:28Z</time>
      </trkpt>
      <trkpt lat="43.4485" lon="5.80832">
        <ele>607.21</ele>
        <time>2019-03-10T10:06:49Z</time>
      </trkpt>
      <trkpt lat="43.44851" lon="5.80833">
        <ele>608.17</ele>
        <time>2019-03-10T10:07:15Z</time>
      </trkpt>
      <trkpt lat="43.44851" lon="5.80833">
        <ele>606.73</ele>
        <time>2019-03-10T10:07:20Z</time>
      </trkpt>
      <trkpt lat="43.44849" lon="5.80833">
        <ele>606.25</ele>
        <time>2019-03-10T10:07:47Z</time>
      </trkpt>
      <trkpt lat="43.44849" lon="5.80832">
        <ele>606.25</ele>
        <time>2019-03-10T10:07:48Z</time>
      </trkpt>
      <trkpt lat="43.4485" lon="5.80833">
        <ele>606.73</ele>
        <time>2019-03-10T10:08:23Z</time>
      </trkpt>
      <trkpt lat="43.4485" lon="5.80833">
        <ele>605.29</ele>
        <time>2019-03-10T10:08:25Z</time>
      </trkpt>
      <trkpt lat="43.4485" lon="5.80833">
        <ele>606.73</ele>
        <time>2019-03-10T10:08:31Z</time>
      </trkpt>
      <trkpt lat="43.4485" lon="5.80832">
        <ele>605.29</ele>
        <time>2019-03-10T10:08:36Z</time>
      </trkpt>
      <trkpt lat="43.4485" lon="5.8083">
        <ele>606.73</ele>
        <time>2019-03-10T10:08:59Z</time>
      </trkpt>
      <trkpt lat="43.44849" lon="5.80832">
        <ele>606.25</ele>
        <time>2019-03-10T10:09:13Z</time>
      </trkpt>
      <trkpt lat="43.44849" lon="5.80832">
        <ele>604.81</ele>
        <time>2019-03-10T10:09:15Z</time>
      </trkpt>
      <trkpt lat="43.44848" lon="5.80833">
        <ele>603.36</ele>
        <time>2019-03-10T10:09:46Z</time>
      </trkpt>
      <trkpt lat="43.44848" lon="5.80835">
        <ele>603.36</ele>
        <time>2019-03-10T10:10:05Z</time>
      </trkpt>
      <trkpt lat="43.4485" lon="5.80832">
        <ele>604.33</ele>
        <time>2019-03-10T10:10:30Z</time>
      </trkpt>
      <trkpt lat="43.44851" lon="5.80834">
        <ele>604.33</ele>
        <time>2019-03-10T10:10:36Z</time>
      </trkpt>
      <trkpt lat="43.44851" lon="5.80836">
        <ele>604.33</ele>
        <time>2019-03-10T10:10:38Z</time>
      </trkpt>
      <trkpt lat="43.44851" lon="5.80838">
        <ele>604.33</ele>
        <time>2019-03-10T10:10:39Z</time>
      </trkpt>
      <trkpt lat="43.44851" lon="5.8084">
        <ele>604.33</ele>
        <time>2019-03-10T10:10:40Z</time>
      </trkpt>
      <trkpt lat="43.44851" lon="5.80842">
        <ele>603.36</ele>
        <time>2019-03-10T10:10:41Z</time>
      </trkpt>
      <trkpt lat="43.44852" lon="5.80844">
        <ele>603.36</ele>
        <time>2019-03-10T10:10:42Z</time>
      </trkpt>
      <trkpt lat="43.44853" lon="5.80846">
        <ele>602.4</ele>
        <time>2019-03-10T10:10:44Z</time>
      </trkpt>
      <trkpt lat="43.44857" lon="5.80845">
        <ele>601.92</ele>
        <time>2019-03-10T10:10:50Z</time>
      </trkpt>
      <trkpt lat="43.44875" lon="5.80819">
        <ele>599.52</ele>
        <time>2019-03-10T10:11:00Z</time>
      </trkpt>
      <trkpt lat="43.44881" lon="5.80816">
        <ele>598.56</ele>
        <time>2019-03-10T10:11:03Z</time>
      </trkpt>
      <trkpt lat="43.44882" lon="5.80817">
        <ele>598.56</ele>
        <time>2019-03-10T10:11:04Z</time>
      </trkpt>
      <trkpt lat="43.44883" lon="5.80818">
        <ele>598.08</ele>
        <time>2019-03-10T10:11:05Z</time>
      </trkpt>
      <trkpt lat="43.44884" lon="5.80819">
        <ele>597.6</ele>
        <time>2019-03-10T10:11:06Z</time>
      </trkpt>
      <trkpt lat="43.44884" lon="5.80821">
        <ele>597.6</ele>
        <time>2019-03-10T10:11:07Z</time>
      </trkpt>
      <trkpt lat="43.44883" lon="5.80823">
        <ele>597.12</ele>
        <time>2019-03-10T10:11:08Z</time>
      </trkpt>
      <trkpt lat="43.44882" lon="5.80825">
        <ele>597.12</ele>
        <time>2019-03-10T10:11:09Z</time>
      </trkpt>
      <trkpt lat="43.44876" lon="5.80849">
        <ele>594.71</ele>
        <time>2019-03-10T10:11:14Z</time>
      </trkpt>
      <trkpt lat="43.44872" lon="5.80864">
        <ele>593.27</ele>
        <time>2019-03-10T10:11:17Z</time>
      </trkpt>
      <trkpt lat="43.44866" lon="5.80897">
        <ele>590.39</ele>
        <time>2019-03-10T10:11:26Z</time>
      </trkpt>
      <trkpt lat="43.44863" lon="5.80926">
        <ele>587.02</ele>
        <time>2019-03-10T10:11:33Z</time>
      </trkpt>
      <trkpt lat="43.4486" lon="5.80959">
        <ele>583.66</ele>
        <time>2019-03-10T10:11:44Z</time>
      </trkpt>
      <trkpt lat="43.44854" lon="5.80994">
        <ele>580.77</ele>
        <time>2019-03-10T10:11:55Z</time>
      </trkpt>
      <trkpt lat="43.4485" lon="5.81026">
        <ele>577.41</ele>
        <time>2019-03-10T10:12:05Z</time>
      </trkpt>
      <trkpt lat="43.44849" lon="5.81028">
        <ele>577.41</ele>
        <time>2019-03-10T10:12:06Z</time>
      </trkpt>
      <trkpt lat="43.44835" lon="5.81062">
        <ele>575.49</ele>
        <time>2019-03-10T10:12:19Z</time>
      </trkpt>
      <trkpt lat="43.44829" lon="5.81069">
        <ele>575.01</ele>
        <time>2019-03-10T10:12:40Z</time>
      </trkpt>
      <trkpt lat="43.4483" lon="5.81068">
        <ele>574.53</ele>
        <time>2019-03-10T10:12:41Z</time>
      </trkpt>
      <trkpt lat="43.44831" lon="5.81068">
        <ele>574.53</ele>
        <time>2019-03-10T10:12:42Z</time>
      </trkpt>
      <trkpt lat="43.44836" lon="5.81064">
        <ele>572.6</ele>
        <time>2019-03-10T10:12:46Z</time>
      </trkpt>
      <trkpt lat="43.44837" lon="5.81063">
        <ele>573.08</ele>
        <time>2019-03-10T10:12:47Z</time>
      </trkpt>
      <trkpt lat="43.44838" lon="5.81062">
        <ele>573.08</ele>
        <time>2019-03-10T10:12:48Z</time>
      </trkpt>
      <trkpt lat="43.44839" lon="5.8106">
        <ele>572.6</ele>
        <time>2019-03-10T10:12:49Z</time>
      </trkpt>
      <trkpt lat="43.44841" lon="5.81057">
        <ele>572.12</ele>
        <time>2019-03-10T10:12:50Z</time>
      </trkpt>
      <trkpt lat="43.44842" lon="5.81054">
        <ele>572.12</ele>
        <time>2019-03-10T10:12:51Z</time>
      </trkpt>
      <trkpt lat="43.44844" lon="5.81051">
        <ele>571.16</ele>
        <time>2019-03-10T10:12:52Z</time>
      </trkpt>
      <trkpt lat="43.44865" lon="5.81022">
        <ele>567.8</ele>
        <time>2019-03-10T10:13:02Z</time>
      </trkpt>
      <trkpt lat="43.44884" lon="5.81003">
        <ele>564.43</ele>
        <time>2019-03-10T10:13:15Z</time>
      </trkpt>
      <trkpt lat="43.44903" lon="5.80982">
        <ele>561.07</ele>
        <time>2019-03-10T10:13:27Z</time>
      </trkpt>
      <trkpt lat="43.44907" lon="5.80978">
        <ele>560.11</ele>
        <time>2019-03-10T10:13:30Z</time>
      </trkpt>
      <trkpt lat="43.44909" lon="5.80976">
        <ele>560.11</ele>
        <time>2019-03-10T10:13:31Z</time>
      </trkpt>
      <trkpt lat="43.4491" lon="5.80974">
        <ele>560.11</ele>
        <time>2019-03-10T10:13:32Z</time>
      </trkpt>
      <trkpt lat="43.44913" lon="5.80971">
        <ele>559.62</ele>
        <time>2019-03-10T10:13:34Z</time>
      </trkpt>
      <trkpt lat="43.44917" lon="5.80967">
        <ele>559.14</ele>
        <time>2019-03-10T10:13:38Z</time>
      </trkpt>
      <trkpt lat="43.44934" lon="5.80946">
        <ele>555.3</ele>
        <time>2019-03-10T10:13:48Z</time>
      </trkpt>
      <trkpt lat="43.44942" lon="5.80932">
        <ele>553.86</ele>
        <time>2019-03-10T10:13:53Z</time>
      </trkpt>
      <trkpt lat="43.44948" lon="5.80923">
        <ele>552.41</ele>
        <time>2019-03-10T10:13:56Z</time>
      </trkpt>
      <trkpt lat="43.44962" lon="5.80904">
        <ele>549.05</ele>
        <time>2019-03-10T10:14:03Z</time>
      </trkpt>
      <trkpt lat="43.44977" lon="5.80879">
        <ele>545.69</ele>
        <time>2019-03-10T10:14:11Z</time>
      </trkpt>
      <trkpt lat="43.44989" lon="5.80856">
        <ele>542.32</ele>
        <time>2019-03-10T10:14:20Z</time>
      </trkpt>
      <trkpt lat="43.45002" lon="5.80824">
        <ele>539.92</ele>
        <time>2019-03-10T10:14:30Z</time>
      </trkpt>
      <trkpt lat="43.45004" lon="5.80822">
        <ele>538.96</ele>
        <time>2019-03-10T10:14:31Z</time>
      </trkpt>
      <trkpt lat="43.45007" lon="5.80822">
        <ele>538.48</ele>
        <time>2019-03-10T10:14:33Z</time>
      </trkpt>
      <trkpt lat="43.45012" lon="5.80818">
        <ele>537.51</ele>
        <time>2019-03-10T10:14:37Z</time>
      </trkpt>
      <trkpt lat="43.45014" lon="5.80823">
        <ele>536.07</ele>
        <time>2019-03-10T10:14:43Z</time>
      </trkpt>
      <trkpt lat="43.45017" lon="5.80829">
        <ele>535.59</ele>
        <time>2019-03-10T10:14:47Z</time>
      </trkpt>
      <trkpt lat="43.45025" lon="5.80842">
        <ele>531.27</ele>
        <time>2019-03-10T10:14:55Z</time>
      </trkpt>
      <trkpt lat="43.45026" lon="5.80843">
        <ele>530.79</ele>
        <time>2019-03-10T10:14:56Z</time>
      </trkpt>
      <trkpt lat="43.45026" lon="5.80845">
        <ele>530.79</ele>
        <time>2019-03-10T10:15:13Z</time>
      </trkpt>
      <trkpt lat="43.45028" lon="5.80845">
        <ele>529.82</ele>
        <time>2019-03-10T10:15:14Z</time>
      </trkpt>
      <trkpt lat="43.45043" lon="5.80849">
        <ele>526.46</ele>
        <time>2019-03-10T10:15:22Z</time>
      </trkpt>
      <trkpt lat="43.45057" lon="5.80853">
        <ele>525.02</ele>
        <time>2019-03-10T10:15:32Z</time>
      </trkpt>
      <trkpt lat="43.45068" lon="5.80849">
        <ele>523.09</ele>
        <time>2019-03-10T10:15:36Z</time>
      </trkpt>
      <trkpt lat="43.4507" lon="5.80848">
        <ele>523.09</ele>
        <time>2019-03-10T10:15:37Z</time>
      </trkpt>
      <trkpt lat="43.45071" lon="5.80847">
        <ele>522.61</ele>
        <time>2019-03-10T10:15:38Z</time>
      </trkpt>
      <trkpt lat="43.45071" lon="5.80845">
        <ele>522.13</ele>
        <time>2019-03-10T10:15:39Z</time>
      </trkpt>
      <trkpt lat="43.45072" lon="5.80844">
        <ele>522.13</ele>
        <time>2019-03-10T10:15:40Z</time>
      </trkpt>
      <trkpt lat="43.45073" lon="5.80843">
        <ele>522.13</ele>
        <time>2019-03-10T10:15:41Z</time>
      </trkpt>
      <trkpt lat="43.45074" lon="5.80842">
        <ele>521.65</ele>
        <time>2019-03-10T10:15:42Z</time>
      </trkpt>
      <trkpt lat="43.45076" lon="5.8084">
        <ele>521.65</ele>
        <time>2019-03-10T10:15:43Z</time>
      </trkpt>
      <trkpt lat="43.45078" lon="5.80838">
        <ele>520.69</ele>
        <time>2019-03-10T10:15:44Z</time>
      </trkpt>
      <trkpt lat="43.45079" lon="5.80835">
        <ele>520.69</ele>
        <time>2019-03-10T10:15:45Z</time>
      </trkpt>
      <trkpt lat="43.45085" lon="5.80833">
        <ele>520.21</ele>
        <time>2019-03-10T10:15:47Z</time>
      </trkpt>
      <trkpt lat="43.45088" lon="5.80832">
        <ele>519.25</ele>
        <time>2019-03-10T10:15:48Z</time>
      </trkpt>
      <trkpt lat="43.4509" lon="5.80832">
        <ele>518.77</ele>
        <time>2019-03-10T10:15:49Z</time>
      </trkpt>
      <trkpt lat="43.45093" lon="5.80832">
        <ele>518.29</ele>
        <time>2019-03-10T10:15:50Z</time>
      </trkpt>
      <trkpt lat="43.45107" lon="5.80832">
        <ele>517.81</ele>
        <time>2019-03-10T10:15:58Z</time>
      </trkpt>
      <trkpt lat="43.45109" lon="5.80832">
        <ele>517.81</ele>
        <time>2019-03-10T10:15:59Z</time>
      </trkpt>
      <trkpt lat="43.45111" lon="5.80833">
        <ele>517.81</ele>
        <time>2019-03-10T10:16:00Z</time>
      </trkpt>
      <trkpt lat="43.45122" lon="5.8084">
        <ele>514.92</ele>
        <time>2019-03-10T10:16:06Z</time>
      </trkpt>
      <trkpt lat="43.45123" lon="5.80841">
        <ele>513.96</ele>
        <time>2019-03-10T10:16:07Z</time>
      </trkpt>
      <trkpt lat="43.45126" lon="5.80859">
        <ele>510.6</ele>
        <time>2019-03-10T10:16:16Z</time>
      </trkpt>
      <trkpt lat="43.45126" lon="5.80885">
        <ele>507.23</ele>
        <time>2019-03-10T10:16:26Z</time>
      </trkpt>
      <trkpt lat="43.45125" lon="5.80892">
        <ele>505.79</ele>
        <time>2019-03-10T10:16:29Z</time>
      </trkpt>
      <trkpt lat="43.45125" lon="5.80914">
        <ele>503.39</ele>
        <time>2019-03-10T10:16:38Z</time>
      </trkpt>
      <trkpt lat="43.45124" lon="5.80916">
        <ele>503.39</ele>
        <time>2019-03-10T10:16:39Z</time>
      </trkpt>
      <trkpt lat="43.45124" lon="5.80919">
        <ele>503.39</ele>
        <time>2019-03-10T10:16:40Z</time>
      </trkpt>
      <trkpt lat="43.45125" lon="5.80922">
        <ele>503.39</ele>
        <time>2019-03-10T10:16:41Z</time>
      </trkpt>
      <trkpt lat="43.45126" lon="5.80926">
        <ele>502.91</ele>
        <time>2019-03-10T10:16:42Z</time>
      </trkpt>
      <trkpt lat="43.45127" lon="5.80929">
        <ele>502.43</ele>
        <time>2019-03-10T10:16:43Z</time>
      </trkpt>
      <trkpt lat="43.45131" lon="5.8095">
        <ele>501.46</ele>
        <time>2019-03-10T10:16:54Z</time>
      </trkpt>
      <trkpt lat="43.45131" lon="5.80952">
        <ele>501.46</ele>
        <time>2019-03-10T10:17:06Z</time>
      </trkpt>
      <trkpt lat="43.45131" lon="5.80954">
        <ele>501.46</ele>
        <time>2019-03-10T10:17:07Z</time>
      </trkpt>
      <trkpt lat="43.45122" lon="5.80983">
        <ele>501.46</ele>
        <time>2019-03-10T10:17:19Z</time>
      </trkpt>
      <trkpt lat="43.45118" lon="5.81022">
        <ele>503.87</ele>
        <time>2019-03-10T10:17:33Z</time>
      </trkpt>
      <trkpt lat="43.45105" lon="5.81073">
        <ele>505.31</ele>
        <time>2019-03-10T10:17:49Z</time>
      </trkpt>
      <trkpt lat="43.45098" lon="5.81121">
        <ele>505.79</ele>
        <time>2019-03-10T10:18:03Z</time>
      </trkpt>
      <trkpt lat="43.4507" lon="5.81151">
        <ele>506.75</ele>
        <time>2019-03-10T10:18:14Z</time>
      </trkpt>
      <trkpt lat="43.45032" lon="5.81163">
        <ele>507.71</ele>
        <time>2019-03-10T10:18:27Z</time>
      </trkpt>
      <trkpt lat="43.45007" lon="5.8117">
        <ele>509.16</ele>
        <time>2019-03-10T10:18:37Z</time>
      </trkpt>
      <trkpt lat="43.45" lon="5.81183">
        <ele>507.23</ele>
        <time>2019-03-10T10:18:40Z</time>
      </trkpt>
      <trkpt lat="43.44989" lon="5.81212">
        <ele>503.87</ele>
        <time>2019-03-10T10:18:44Z</time>
      </trkpt>
      <trkpt lat="43.44986" lon="5.8122">
        <ele>503.87</ele>
        <time>2019-03-10T10:18:45Z</time>
      </trkpt>
      <trkpt lat="43.44973" lon="5.8126">
        <ele>500.98</ele>
        <time>2019-03-10T10:18:52Z</time>
      </trkpt>
      <trkpt lat="43.44961" lon="5.81294">
        <ele>498.1</ele>
        <time>2019-03-10T10:18:59Z</time>
      </trkpt>
      <trkpt lat="43.44924" lon="5.81355">
        <ele>497.62</ele>
        <time>2019-03-10T10:19:10Z</time>
      </trkpt>
      <trkpt lat="43.44893" lon="5.81416">
        <ele>496.18</ele>
        <time>2019-03-10T10:19:22Z</time>
      </trkpt>
      <trkpt lat="43.44874" lon="5.81456">
        <ele>493.77</ele>
        <time>2019-03-10T10:19:33Z</time>
      </trkpt>
      <trkpt lat="43.44871" lon="5.81465">
        <ele>491.85</ele>
        <time>2019-03-10T10:19:36Z</time>
      </trkpt>
      <trkpt lat="43.44847" lon="5.81494">
        <ele>493.29</ele>
        <time>2019-03-10T10:19:46Z</time>
      </trkpt>
      <trkpt lat="43.44827" lon="5.81526">
        <ele>495.7</ele>
        <time>2019-03-10T10:19:58Z</time>
      </trkpt>
      <trkpt lat="43.44815" lon="5.81567">
        <ele>496.66</ele>
        <time>2019-03-10T10:20:10Z</time>
      </trkpt>
      <trkpt lat="43.44786" lon="5.8162">
        <ele>498.58</ele>
        <time>2019-03-10T10:20:26Z</time>
      </trkpt>
      <trkpt lat="43.44765" lon="5.81663">
        <ele>497.14</ele>
        <time>2019-03-10T10:20:37Z</time>
      </trkpt>
      <trkpt lat="43.44734" lon="5.81706">
        <ele>497.14</ele>
        <time>2019-03-10T10:20:48Z</time>
      </trkpt>
      <trkpt lat="43.44716" lon="5.81719">
        <ele>500.02</ele>
        <time>2019-03-10T10:20:55Z</time>
      </trkpt>
      <trkpt lat="43.44693" lon="5.81746">
        <ele>502.43</ele>
        <time>2019-03-10T10:21:07Z</time>
      </trkpt>
      <trkpt lat="43.44677" lon="5.8176">
        <ele>504.35</ele>
        <time>2019-03-10T10:21:16Z</time>
      </trkpt>
      <trkpt lat="43.44656" lon="5.81788">
        <ele>504.83</ele>
        <time>2019-03-10T10:21:27Z</time>
      </trkpt>
      <trkpt lat="43.44634" lon="5.81816">
        <ele>505.79</ele>
        <time>2019-03-10T10:21:40Z</time>
      </trkpt>
      <trkpt lat="43.44622" lon="5.81834">
        <ele>506.75</ele>
        <time>2019-03-10T10:21:53Z</time>
      </trkpt>
      <trkpt lat="43.44621" lon="5.81841">
        <ele>506.75</ele>
        <time>2019-03-10T10:22:20Z</time>
      </trkpt>
      <trkpt lat="43.44611" lon="5.81848">
        <ele>506.75</ele>
        <time>2019-03-10T10:22:33Z</time>
      </trkpt>
      <trkpt lat="43.4461" lon="5.81849">
        <ele>506.75</ele>
        <time>2019-03-10T10:22:34Z</time>
      </trkpt>
      <trkpt lat="43.44609" lon="5.81851">
        <ele>506.75</ele>
        <time>2019-03-10T10:22:35Z</time>
      </trkpt>
      <trkpt lat="43.44608" lon="5.81853">
        <ele>506.75</ele>
        <time>2019-03-10T10:22:36Z</time>
      </trkpt>
      <trkpt lat="43.44606" lon="5.81855">
        <ele>507.23</ele>
        <time>2019-03-10T10:22:37Z</time>
      </trkpt>
      <trkpt lat="43.44605" lon="5.81857">
        <ele>507.23</ele>
        <time>2019-03-10T10:22:38Z</time>
      </trkpt>
      <trkpt lat="43.44603" lon="5.81861">
        <ele>507.23</ele>
        <time>2019-03-10T10:22:39Z</time>
      </trkpt>
      <trkpt lat="43.44602" lon="5.81866">
        <ele>505.79</ele>
        <time>2019-03-10T10:22:40Z</time>
      </trkpt>
      <trkpt lat="43.446" lon="5.81872">
        <ele>505.79</ele>
        <time>2019-03-10T10:22:41Z</time>
      </trkpt>
      <trkpt lat="43.44594" lon="5.81889">
        <ele>505.79</ele>
        <time>2019-03-10T10:22:44Z</time>
      </trkpt>
      <trkpt lat="43.44591" lon="5.81893">
        <ele>506.75</ele>
        <time>2019-03-10T10:22:45Z</time>
      </trkpt>
      <trkpt lat="43.44587" lon="5.81897">
        <ele>506.75</ele>
        <time>2019-03-10T10:22:46Z</time>
      </trkpt>
      <trkpt lat="43.44584" lon="5.81899">
        <ele>506.75</ele>
        <time>2019-03-10T10:22:47Z</time>
      </trkpt>
      <trkpt lat="43.4458" lon="5.81902">
        <ele>507.23</ele>
        <time>2019-03-10T10:22:48Z</time>
      </trkpt>
      <trkpt lat="43.44576" lon="5.81905">
        <ele>507.23</ele>
        <time>2019-03-10T10:22:49Z</time>
      </trkpt>
      <trkpt lat="43.44573" lon="5.81909">
        <ele>507.71</ele>
        <time>2019-03-10T10:22:50Z</time>
      </trkpt>
      <trkpt lat="43.4457" lon="5.81912">
        <ele>508.19</ele>
        <time>2019-03-10T10:22:51Z</time>
      </trkpt>
      <trkpt lat="43.44553" lon="5.81934">
        <ele>511.08</ele>
        <time>2019-03-10T10:22:59Z</time>
      </trkpt>
      <trkpt lat="43.44552" lon="5.81938">
        <ele>511.56</ele>
        <time>2019-03-10T10:23:00Z</time>
      </trkpt>
      <trkpt lat="43.4455" lon="5.8194">
        <ele>511.56</ele>
        <time>2019-03-10T10:23:01Z</time>
      </trkpt>
      <trkpt lat="43.44548" lon="5.81943">
        <ele>512.04</ele>
        <time>2019-03-10T10:23:02Z</time>
      </trkpt>
      <trkpt lat="43.44546" lon="5.81945">
        <ele>512.04</ele>
        <time>2019-03-10T10:23:03Z</time>
      </trkpt>
      <trkpt lat="43.44544" lon="5.81947">
        <ele>512.52</ele>
        <time>2019-03-10T10:23:04Z</time>
      </trkpt>
      <trkpt lat="43.44523" lon="5.81987">
        <ele>510.6</ele>
        <time>2019-03-10T10:23:17Z</time>
      </trkpt>
      <trkpt lat="43.4452" lon="5.82002">
        <ele>509.64</ele>
        <time>2019-03-10T10:23:19Z</time>
      </trkpt>
      <trkpt lat="43.44509" lon="5.8204">
        <ele>506.27</ele>
        <time>2019-03-10T10:23:24Z</time>
      </trkpt>
      <trkpt lat="43.44503" lon="5.82065">
        <ele>504.83</ele>
        <time>2019-03-10T10:23:27Z</time>
      </trkpt>
      <trkpt lat="43.44502" lon="5.82073">
        <ele>504.35</ele>
        <time>2019-03-10T10:23:28Z</time>
      </trkpt>
      <trkpt lat="43.44501" lon="5.82081">
        <ele>503.87</ele>
        <time>2019-03-10T10:23:29Z</time>
      </trkpt>
      <trkpt lat="43.44495" lon="5.82101">
        <ele>502.91</ele>
        <time>2019-03-10T10:23:34Z</time>
      </trkpt>
      <trkpt lat="43.44485" lon="5.82118">
        <ele>502.91</ele>
        <time>2019-03-10T10:23:38Z</time>
      </trkpt>
      <trkpt lat="43.44478" lon="5.8213">
        <ele>502.91</ele>
        <time>2019-03-10T10:23:40Z</time>
      </trkpt>
      <trkpt lat="43.44474" lon="5.82142">
        <ele>504.35</ele>
        <time>2019-03-10T10:23:42Z</time>
      </trkpt>
      <trkpt lat="43.44471" lon="5.82148">
        <ele>504.35</ele>
        <time>2019-03-10T10:23:43Z</time>
      </trkpt>
      <trkpt lat="43.44469" lon="5.82155">
        <ele>504.35</ele>
        <time>2019-03-10T10:23:44Z</time>
      </trkpt>
      <trkpt lat="43.44467" lon="5.82162">
        <ele>504.35</ele>
        <time>2019-03-10T10:23:45Z</time>
      </trkpt>
      <trkpt lat="43.44464" lon="5.82168">
        <ele>504.35</ele>
        <time>2019-03-10T10:23:46Z</time>
      </trkpt>
      <trkpt lat="43.44462" lon="5.82174">
        <ele>504.35</ele>
        <time>2019-03-10T10:23:47Z</time>
      </trkpt>
      <trkpt lat="43.44445" lon="5.82203">
        <ele>502.43</ele>
        <time>2019-03-10T10:23:52Z</time>
      </trkpt>
      <trkpt lat="43.44435" lon="5.82221">
        <ele>501.95</ele>
        <time>2019-03-10T10:23:55Z</time>
      </trkpt>
      <trkpt lat="43.44431" lon="5.82227">
        <ele>501.46</ele>
        <time>2019-03-10T10:23:56Z</time>
      </trkpt>
      <trkpt lat="43.44424" lon="5.82241">
        <ele>500.5</ele>
        <time>2019-03-10T10:23:58Z</time>
      </trkpt>
      <trkpt lat="43.44421" lon="5.8225">
        <ele>500.5</ele>
        <time>2019-03-10T10:23:59Z</time>
      </trkpt>
      <trkpt lat="43.44408" lon="5.82285">
        <ele>498.58</ele>
        <time>2019-03-10T10:24:03Z</time>
      </trkpt>
      <trkpt lat="43.44405" lon="5.82293">
        <ele>498.58</ele>
        <time>2019-03-10T10:24:04Z</time>
      </trkpt>
      <trkpt lat="43.44402" lon="5.823">
        <ele>498.58</ele>
        <time>2019-03-10T10:24:05Z</time>
      </trkpt>
      <trkpt lat="43.44399" lon="5.82308">
        <ele>498.58</ele>
        <time>2019-03-10T10:24:06Z</time>
      </trkpt>
      <trkpt lat="43.44396" lon="5.82316">
        <ele>498.1</ele>
        <time>2019-03-10T10:24:07Z</time>
      </trkpt>
      <trkpt lat="43.44392" lon="5.82325">
        <ele>498.1</ele>
        <time>2019-03-10T10:24:08Z</time>
      </trkpt>
      <trkpt lat="43.44389" lon="5.82332">
        <ele>498.1</ele>
        <time>2019-03-10T10:24:09Z</time>
      </trkpt>
      <trkpt lat="43.44382" lon="5.82345">
        <ele>496.66</ele>
        <time>2019-03-10T10:24:11Z</time>
      </trkpt>
      <trkpt lat="43.44376" lon="5.82358">
        <ele>495.7</ele>
        <time>2019-03-10T10:24:13Z</time>
      </trkpt>
      <trkpt lat="43.44374" lon="5.82365">
        <ele>495.22</ele>
        <time>2019-03-10T10:24:14Z</time>
      </trkpt>
      <trkpt lat="43.4437" lon="5.82371">
        <ele>494.26</ele>
        <time>2019-03-10T10:24:15Z</time>
      </trkpt>
      <trkpt lat="43.44367" lon="5.82378">
        <ele>494.26</ele>
        <time>2019-03-10T10:24:16Z</time>
      </trkpt>
      <trkpt lat="43.44358" lon="5.82401">
        <ele>494.26</ele>
        <time>2019-03-10T10:24:19Z</time>
      </trkpt>
      <trkpt lat="43.44354" lon="5.82408">
        <ele>493.29</ele>
        <time>2019-03-10T10:24:20Z</time>
      </trkpt>
      <trkpt lat="43.4434" lon="5.82437">
        <ele>492.81</ele>
        <time>2019-03-10T10:24:24Z</time>
      </trkpt>
      <trkpt lat="43.44337" lon="5.82445">
        <ele>493.29</ele>
        <time>2019-03-10T10:24:25Z</time>
      </trkpt>
      <trkpt lat="43.44335" lon="5.82454">
        <ele>492.33</ele>
        <time>2019-03-10T10:24:26Z</time>
      </trkpt>
      <trkpt lat="43.44334" lon="5.82461">
        <ele>492.33</ele>
        <time>2019-03-10T10:24:27Z</time>
      </trkpt>
      <trkpt lat="43.44335" lon="5.82467">
        <ele>491.85</ele>
        <time>2019-03-10T10:24:28Z</time>
      </trkpt>
      <trkpt lat="43.44338" lon="5.82472">
        <ele>491.37</ele>
        <time>2019-03-10T10:24:29Z</time>
      </trkpt>
      <trkpt lat="43.44339" lon="5.82475">
        <ele>491.37</ele>
        <time>2019-03-10T10:24:30Z</time>
      </trkpt>
      <trkpt lat="43.4434" lon="5.8248">
        <ele>491.37</ele>
        <time>2019-03-10T10:24:31Z</time>
      </trkpt>
      <trkpt lat="43.4434" lon="5.82483">
        <ele>491.37</ele>
        <time>2019-03-10T10:24:32Z</time>
      </trkpt>
      <trkpt lat="43.4434" lon="5.82486">
        <ele>491.37</ele>
        <time>2019-03-10T10:24:33Z</time>
      </trkpt>
      <trkpt lat="43.44334" lon="5.82495">
        <ele>491.37</ele>
        <time>2019-03-10T10:24:41Z</time>
      </trkpt>
      <trkpt lat="43.44331" lon="5.82503">
        <ele>491.37</ele>
        <time>2019-03-10T10:24:44Z</time>
      </trkpt>
      <trkpt lat="43.44329" lon="5.82507">
        <ele>491.37</ele>
        <time>2019-03-10T10:24:45Z</time>
      </trkpt>
      <trkpt lat="43.44313" lon="5.8255">
        <ele>490.89</ele>
        <time>2019-03-10T10:24:56Z</time>
      </trkpt>
      <trkpt lat="43.44291" lon="5.82601">
        <ele>490.41</ele>
        <time>2019-03-10T10:25:06Z</time>
      </trkpt>
      <trkpt lat="43.44285" lon="5.82632">
        <ele>490.41</ele>
        <time>2019-03-10T10:25:11Z</time>
      </trkpt>
      <trkpt lat="43.44279" lon="5.82659">
        <ele>490.89</ele>
        <time>2019-03-10T10:25:15Z</time>
      </trkpt>
      <trkpt lat="43.44275" lon="5.82678">
        <ele>490.89</ele>
        <time>2019-03-10T10:25:18Z</time>
      </trkpt>
      <trkpt lat="43.44275" lon="5.82722">
        <ele>490.89</ele>
        <time>2019-03-10T10:25:24Z</time>
      </trkpt>
      <trkpt lat="43.44268" lon="5.82763">
        <ele>489.93</ele>
        <time>2019-03-10T10:25:33Z</time>
      </trkpt>
      <trkpt lat="43.44265" lon="5.82774">
        <ele>489.45</ele>
        <time>2019-03-10T10:25:35Z</time>
      </trkpt>
      <trkpt lat="43.44263" lon="5.82789">
        <ele>488.49</ele>
        <time>2019-03-10T10:25:37Z</time>
      </trkpt>
      <trkpt lat="43.44263" lon="5.82797">
        <ele>488.49</ele>
        <time>2019-03-10T10:25:38Z</time>
      </trkpt>
      <trkpt lat="43.44264" lon="5.82804">
        <ele>488.01</ele>
        <time>2019-03-10T10:25:39Z</time>
      </trkpt>
      <trkpt lat="43.44265" lon="5.82812">
        <ele>487.53</ele>
        <time>2019-03-10T10:25:40Z</time>
      </trkpt>
      <trkpt lat="43.44266" lon="5.82821">
        <ele>487.53</ele>
        <time>2019-03-10T10:25:41Z</time>
      </trkpt>
      <trkpt lat="43.44266" lon="5.82829">
        <ele>485.6</ele>
        <time>2019-03-10T10:25:42Z</time>
      </trkpt>
      <trkpt lat="43.44265" lon="5.82837">
        <ele>485.6</ele>
        <time>2019-03-10T10:25:43Z</time>
      </trkpt>
      <trkpt lat="43.44265" lon="5.82844">
        <ele>485.6</ele>
        <time>2019-03-10T10:25:44Z</time>
      </trkpt>
      <trkpt lat="43.44263" lon="5.8286">
        <ele>482.72</ele>
        <time>2019-03-10T10:25:46Z</time>
      </trkpt>
      <trkpt lat="43.44262" lon="5.82868">
        <ele>482.72</ele>
        <time>2019-03-10T10:25:47Z</time>
      </trkpt>
      <trkpt lat="43.44259" lon="5.82896">
        <ele>481.76</ele>
        <time>2019-03-10T10:25:50Z</time>
      </trkpt>
      <trkpt lat="43.44259" lon="5.82907">
        <ele>480.8</ele>
        <time>2019-03-10T10:25:51Z</time>
      </trkpt>
      <trkpt lat="43.44259" lon="5.82917">
        <ele>480.8</ele>
        <time>2019-03-10T10:25:52Z</time>
      </trkpt>
      <trkpt lat="43.44259" lon="5.82955">
        <ele>479.35</ele>
        <time>2019-03-10T10:25:56Z</time>
      </trkpt>
      <trkpt lat="43.44258" lon="5.82964">
        <ele>479.35</ele>
        <time>2019-03-10T10:25:57Z</time>
      </trkpt>
      <trkpt lat="43.44257" lon="5.82983">
        <ele>478.87</ele>
        <time>2019-03-10T10:25:59Z</time>
      </trkpt>
      <trkpt lat="43.44258" lon="5.83027">
        <ele>478.39</ele>
        <time>2019-03-10T10:26:04Z</time>
      </trkpt>
      <trkpt lat="43.44255" lon="5.83053">
        <ele>476.95</ele>
        <time>2019-03-10T10:26:07Z</time>
      </trkpt>
      <trkpt lat="43.44256" lon="5.8306">
        <ele>476.95</ele>
        <time>2019-03-10T10:26:08Z</time>
      </trkpt>
      <trkpt lat="43.44256" lon="5.83066">
        <ele>476.47</ele>
        <time>2019-03-10T10:26:09Z</time>
      </trkpt>
      <trkpt lat="43.44256" lon="5.83072">
        <ele>476.47</ele>
        <time>2019-03-10T10:26:10Z</time>
      </trkpt>
      <trkpt lat="43.44256" lon="5.83077">
        <ele>476.47</ele>
        <time>2019-03-10T10:26:11Z</time>
      </trkpt>
      <trkpt lat="43.44257" lon="5.83083">
        <ele>475.51</ele>
        <time>2019-03-10T10:26:12Z</time>
      </trkpt>
      <trkpt lat="43.44261" lon="5.83139">
        <ele>474.55</ele>
        <time>2019-03-10T10:26:24Z</time>
      </trkpt>
      <trkpt lat="43.4426" lon="5.83216">
        <ele>473.11</ele>
        <time>2019-03-10T10:26:39Z</time>
      </trkpt>
      <trkpt lat="43.44263" lon="5.83288">
        <ele>471.18</ele>
        <time>2019-03-10T10:26:49Z</time>
      </trkpt>
      <trkpt lat="43.44262" lon="5.83296">
        <ele>470.22</ele>
        <time>2019-03-10T10:26:50Z</time>
      </trkpt>
      <trkpt lat="43.44261" lon="5.83303">
        <ele>470.22</ele>
        <time>2019-03-10T10:26:51Z</time>
      </trkpt>
      <trkpt lat="43.4426" lon="5.8331">
        <ele>470.22</ele>
        <time>2019-03-10T10:26:52Z</time>
      </trkpt>
      <trkpt lat="43.44259" lon="5.83318">
        <ele>470.22</ele>
        <time>2019-03-10T10:26:53Z</time>
      </trkpt>
      <trkpt lat="43.44258" lon="5.83326">
        <ele>470.22</ele>
        <time>2019-03-10T10:26:54Z</time>
      </trkpt>
      <trkpt lat="43.44251" lon="5.83357">
        <ele>468.78</ele>
        <time>2019-03-10T10:26:58Z</time>
      </trkpt>
      <trkpt lat="43.4425" lon="5.83365">
        <ele>468.3</ele>
        <time>2019-03-10T10:26:59Z</time>
      </trkpt>
      <trkpt lat="43.44251" lon="5.83372">
        <ele>467.34</ele>
        <time>2019-03-10T10:27:00Z</time>
      </trkpt>
      <trkpt lat="43.44252" lon="5.8338">
        <ele>467.34</ele>
        <time>2019-03-10T10:27:01Z</time>
      </trkpt>
      <trkpt lat="43.44252" lon="5.83389">
        <ele>466.38</ele>
        <time>2019-03-10T10:27:02Z</time>
      </trkpt>
      <trkpt lat="43.4425" lon="5.83399">
        <ele>464.93</ele>
        <time>2019-03-10T10:27:03Z</time>
      </trkpt>
      <trkpt lat="43.44249" lon="5.83407">
        <ele>465.9</ele>
        <time>2019-03-10T10:27:04Z</time>
      </trkpt>
      <trkpt lat="43.44247" lon="5.83416">
        <ele>465.9</ele>
        <time>2019-03-10T10:27:05Z</time>
      </trkpt>
      <trkpt lat="43.44246" lon="5.83426">
        <ele>464.45</ele>
        <time>2019-03-10T10:27:06Z</time>
      </trkpt>
      <trkpt lat="43.44246" lon="5.83435">
        <ele>463.97</ele>
        <time>2019-03-10T10:27:07Z</time>
      </trkpt>
      <trkpt lat="43.44246" lon="5.83443">
        <ele>463.49</ele>
        <time>2019-03-10T10:27:08Z</time>
      </trkpt>
      <trkpt lat="43.44247" lon="5.8345">
        <ele>463.01</ele>
        <time>2019-03-10T10:27:09Z</time>
      </trkpt>
      <trkpt lat="43.44247" lon="5.83457">
        <ele>462.53</ele>
        <time>2019-03-10T10:27:10Z</time>
      </trkpt>
      <trkpt lat="43.44247" lon="5.83465">
        <ele>461.09</ele>
        <time>2019-03-10T10:27:11Z</time>
      </trkpt>
      <trkpt lat="43.44246" lon="5.83473">
        <ele>461.09</ele>
        <time>2019-03-10T10:27:12Z</time>
      </trkpt>
      <trkpt lat="43.44246" lon="5.83481">
        <ele>460.13</ele>
        <time>2019-03-10T10:27:13Z</time>
      </trkpt>
      <trkpt lat="43.44247" lon="5.83487">
        <ele>459.17</ele>
        <time>2019-03-10T10:27:14Z</time>
      </trkpt>
      <trkpt lat="43.44248" lon="5.83492">
        <ele>458.69</ele>
        <time>2019-03-10T10:27:15Z</time>
      </trkpt>
      <trkpt lat="43.4425" lon="5.83509">
        <ele>455.32</ele>
        <time>2019-03-10T10:27:22Z</time>
      </trkpt>
      <trkpt lat="43.44239" lon="5.83535">
        <ele>455.8</ele>
        <time>2019-03-10T10:27:31Z</time>
      </trkpt>
      <trkpt lat="43.44236" lon="5.83541">
        <ele>455.8</ele>
        <time>2019-03-10T10:27:32Z</time>
      </trkpt>
      <trkpt lat="43.44234" lon="5.83548">
        <ele>455.8</ele>
        <time>2019-03-10T10:27:33Z</time>
      </trkpt>
      <trkpt lat="43.44233" lon="5.83555">
        <ele>455.8</ele>
        <time>2019-03-10T10:27:34Z</time>
      </trkpt>
      <trkpt lat="43.44233" lon="5.83563">
        <ele>455.8</ele>
        <time>2019-03-10T10:27:35Z</time>
      </trkpt>
      <trkpt lat="43.44233" lon="5.83571">
        <ele>455.32</ele>
        <time>2019-03-10T10:27:36Z</time>
      </trkpt>
      <trkpt lat="43.44234" lon="5.83579">
        <ele>455.32</ele>
        <time>2019-03-10T10:27:37Z</time>
      </trkpt>
      <trkpt lat="43.44235" lon="5.83595">
        <ele>454.36</ele>
        <time>2019-03-10T10:27:39Z</time>
      </trkpt>
      <trkpt lat="43.44235" lon="5.83603">
        <ele>453.88</ele>
        <time>2019-03-10T10:27:40Z</time>
      </trkpt>
      <trkpt lat="43.44233" lon="5.8361">
        <ele>453.4</ele>
        <time>2019-03-10T10:27:41Z</time>
      </trkpt>
      <trkpt lat="43.4423" lon="5.83617">
        <ele>453.4</ele>
        <time>2019-03-10T10:27:42Z</time>
      </trkpt>
      <trkpt lat="43.44225" lon="5.83624">
        <ele>452.44</ele>
        <time>2019-03-10T10:27:43Z</time>
      </trkpt>
      <trkpt lat="43.44221" lon="5.8363">
        <ele>452.44</ele>
        <time>2019-03-10T10:27:44Z</time>
      </trkpt>
      <trkpt lat="43.44219" lon="5.83637">
        <ele>452.44</ele>
        <time>2019-03-10T10:27:45Z</time>
      </trkpt>
      <trkpt lat="43.44218" lon="5.83643">
        <ele>451.48</ele>
        <time>2019-03-10T10:27:46Z</time>
      </trkpt>
      <trkpt lat="43.44217" lon="5.8365">
        <ele>451</ele>
        <time>2019-03-10T10:27:47Z</time>
      </trkpt>
      <trkpt lat="43.44217" lon="5.83656">
        <ele>450.52</ele>
        <time>2019-03-10T10:27:48Z</time>
      </trkpt>
      <trkpt lat="43.44213" lon="5.83716">
        <ele>447.63</ele>
        <time>2019-03-10T10:27:59Z</time>
      </trkpt>
      <trkpt lat="43.44213" lon="5.83753">
        <ele>446.19</ele>
        <time>2019-03-10T10:28:04Z</time>
      </trkpt>
      <trkpt lat="43.44212" lon="5.8376">
        <ele>445.23</ele>
        <time>2019-03-10T10:28:05Z</time>
      </trkpt>
      <trkpt lat="43.44212" lon="5.83767">
        <ele>445.23</ele>
        <time>2019-03-10T10:28:06Z</time>
      </trkpt>
      <trkpt lat="43.44211" lon="5.83774">
        <ele>445.23</ele>
        <time>2019-03-10T10:28:07Z</time>
      </trkpt>
      <trkpt lat="43.44209" lon="5.83781">
        <ele>445.23</ele>
        <time>2019-03-10T10:28:08Z</time>
      </trkpt>
      <trkpt lat="43.44197" lon="5.83867">
        <ele>441.86</ele>
        <time>2019-03-10T10:28:19Z</time>
      </trkpt>
      <trkpt lat="43.44195" lon="5.83874">
        <ele>441.86</ele>
        <time>2019-03-10T10:28:20Z</time>
      </trkpt>
      <trkpt lat="43.44194" lon="5.83882">
        <ele>441.86</ele>
        <time>2019-03-10T10:28:21Z</time>
      </trkpt>
      <trkpt lat="43.4418" lon="5.83967">
        <ele>439.46</ele>
        <time>2019-03-10T10:28:31Z</time>
      </trkpt>
      <trkpt lat="43.44171" lon="5.8401">
        <ele>437.06</ele>
        <time>2019-03-10T10:28:36Z</time>
      </trkpt>
      <trkpt lat="43.44166" lon="5.84032">
        <ele>435.13</ele>
        <time>2019-03-10T10:28:39Z</time>
      </trkpt>
      <trkpt lat="43.44164" lon="5.84037">
        <ele>435.13</ele>
        <time>2019-03-10T10:28:40Z</time>
      </trkpt>
      <trkpt lat="43.44161" lon="5.84041">
        <ele>434.17</ele>
        <time>2019-03-10T10:28:41Z</time>
      </trkpt>
      <trkpt lat="43.44152" lon="5.84056">
        <ele>430.81</ele>
        <time>2019-03-10T10:28:45Z</time>
      </trkpt>
      <trkpt lat="43.44147" lon="5.84066">
        <ele>429.85</ele>
        <time>2019-03-10T10:28:47Z</time>
      </trkpt>
      <trkpt lat="43.44131" lon="5.84101">
        <ele>426</ele>
        <time>2019-03-10T10:28:53Z</time>
      </trkpt>
      <trkpt lat="43.44125" lon="5.84111">
        <ele>425.04</ele>
        <time>2019-03-10T10:28:55Z</time>
      </trkpt>
      <trkpt lat="43.44116" lon="5.84133">
        <ele>423.6</ele>
        <time>2019-03-10T10:28:58Z</time>
      </trkpt>
      <trkpt lat="43.44102" lon="5.84169">
        <ele>420.71</ele>
        <time>2019-03-10T10:29:02Z</time>
      </trkpt>
      <trkpt lat="43.44092" lon="5.84203">
        <ele>418.31</ele>
        <time>2019-03-10T10:29:06Z</time>
      </trkpt>
      <trkpt lat="43.44079" lon="5.84248">
        <ele>414.47</ele>
        <time>2019-03-10T10:29:12Z</time>
      </trkpt>
      <trkpt lat="43.44071" lon="5.84274">
        <ele>411.1</ele>
        <time>2019-03-10T10:29:19Z</time>
      </trkpt>
      <trkpt lat="43.44063" lon="5.84322">
        <ele>408.7</ele>
        <time>2019-03-10T10:29:30Z</time>
      </trkpt>
      <trkpt lat="43.44062" lon="5.84393">
        <ele>406.77</ele>
        <time>2019-03-10T10:29:43Z</time>
      </trkpt>
      <trkpt lat="43.44063" lon="5.844">
        <ele>406.77</ele>
        <time>2019-03-10T10:29:44Z</time>
      </trkpt>
      <trkpt lat="43.44064" lon="5.84404">
        <ele>406.77</ele>
        <time>2019-03-10T10:29:45Z</time>
      </trkpt>
      <trkpt lat="43.44064" lon="5.8441">
        <ele>406.77</ele>
        <time>2019-03-10T10:29:46Z</time>
      </trkpt>
      <trkpt lat="43.44067" lon="5.84461">
        <ele>405.81</ele>
        <time>2019-03-10T10:29:55Z</time>
      </trkpt>
      <trkpt lat="43.44067" lon="5.84489">
        <ele>403.89</ele>
        <time>2019-03-10T10:30:00Z</time>
      </trkpt>
      <trkpt lat="43.44066" lon="5.84504">
        <ele>403.41</ele>
        <time>2019-03-10T10:30:02Z</time>
      </trkpt>
      <trkpt lat="43.44067" lon="5.84512">
        <ele>402.93</ele>
        <time>2019-03-10T10:30:03Z</time>
      </trkpt>
      <trkpt lat="43.44068" lon="5.84529">
        <ele>401.49</ele>
        <time>2019-03-10T10:30:06Z</time>
      </trkpt>
      <trkpt lat="43.44073" lon="5.84577">
        <ele>398.12</ele>
        <time>2019-03-10T10:30:13Z</time>
      </trkpt>
      <trkpt lat="43.44078" lon="5.84599">
        <ele>396.2</ele>
        <time>2019-03-10T10:30:18Z</time>
      </trkpt>
      <trkpt lat="43.44079" lon="5.84601">
        <ele>395.72</ele>
        <time>2019-03-10T10:30:19Z</time>
      </trkpt>
      <trkpt lat="43.4408" lon="5.84604">
        <ele>395.24</ele>
        <time>2019-03-10T10:30:20Z</time>
      </trkpt>
      <trkpt lat="43.44081" lon="5.84606">
        <ele>394.76</ele>
        <time>2019-03-10T10:30:21Z</time>
      </trkpt>
      <trkpt lat="43.44094" lon="5.84627">
        <ele>391.87</ele>
        <time>2019-03-10T10:30:32Z</time>
      </trkpt>
      <trkpt lat="43.44097" lon="5.84629">
        <ele>391.39</ele>
        <time>2019-03-10T10:30:33Z</time>
      </trkpt>
      <trkpt lat="43.44101" lon="5.8463">
        <ele>390.91</ele>
        <time>2019-03-10T10:30:34Z</time>
      </trkpt>
      <trkpt lat="43.4411" lon="5.84632">
        <ele>390.43</ele>
        <time>2019-03-10T10:30:36Z</time>
      </trkpt>
      <trkpt lat="43.44114" lon="5.84634">
        <ele>389.95</ele>
        <time>2019-03-10T10:30:37Z</time>
      </trkpt>
      <trkpt lat="43.44116" lon="5.84637">
        <ele>389.95</ele>
        <time>2019-03-10T10:30:38Z</time>
      </trkpt>
      <trkpt lat="43.44118" lon="5.84639">
        <ele>389.95</ele>
        <time>2019-03-10T10:30:39Z</time>
      </trkpt>
      <trkpt lat="43.44125" lon="5.84642">
        <ele>391.39</ele>
        <time>2019-03-10T10:30:46Z</time>
      </trkpt>
      <trkpt lat="43.44139" lon="5.8466">
        <ele>394.28</ele>
        <time>2019-03-10T10:31:02Z</time>
      </trkpt>
      <trkpt lat="43.44141" lon="5.84668">
        <ele>395.72</ele>
        <time>2019-03-10T10:31:08Z</time>
      </trkpt>
      <trkpt lat="43.4415" lon="5.8469">
        <ele>397.64</ele>
        <time>2019-03-10T10:31:24Z</time>
      </trkpt>
      <trkpt lat="43.44158" lon="5.84706">
        <ele>398.12</ele>
        <time>2019-03-10T10:31:39Z</time>
      </trkpt>
      <trkpt lat="43.44172" lon="5.8473">
        <ele>401.01</ele>
        <time>2019-03-10T10:31:52Z</time>
      </trkpt>
      <trkpt lat="43.44192" lon="5.84756">
        <ele>397.16</ele>
        <time>2019-03-10T10:32:04Z</time>
      </trkpt>
      <trkpt lat="43.44208" lon="5.84792">
        <ele>393.8</ele>
        <time>2019-03-10T10:32:10Z</time>
      </trkpt>
      <trkpt lat="43.44212" lon="5.84801">
        <ele>392.84</ele>
        <time>2019-03-10T10:32:11Z</time>
      </trkpt>
      <trkpt lat="43.44214" lon="5.8481">
        <ele>391.87</ele>
        <time>2019-03-10T10:32:12Z</time>
      </trkpt>
      <trkpt lat="43.44223" lon="5.84841">
        <ele>388.99</ele>
        <time>2019-03-10T10:32:17Z</time>
      </trkpt>
      <trkpt lat="43.44224" lon="5.84847">
        <ele>388.99</ele>
        <time>2019-03-10T10:32:18Z</time>
      </trkpt>
      <trkpt lat="43.44226" lon="5.84853">
        <ele>388.03</ele>
        <time>2019-03-10T10:32:19Z</time>
      </trkpt>
      <trkpt lat="43.4423" lon="5.84859">
        <ele>388.03</ele>
        <time>2019-03-10T10:32:20Z</time>
      </trkpt>
      <trkpt lat="43.44234" lon="5.84864">
        <ele>387.55</ele>
        <time>2019-03-10T10:32:21Z</time>
      </trkpt>
      <trkpt lat="43.44238" lon="5.8487">
        <ele>387.07</ele>
        <time>2019-03-10T10:32:22Z</time>
      </trkpt>
      <trkpt lat="43.44243" lon="5.84878">
        <ele>387.55</ele>
        <time>2019-03-10T10:32:23Z</time>
      </trkpt>
      <trkpt lat="43.44247" lon="5.84885">
        <ele>387.55</ele>
        <time>2019-03-10T10:32:24Z</time>
      </trkpt>
      <trkpt lat="43.44251" lon="5.84894">
        <ele>386.11</ele>
        <time>2019-03-10T10:32:25Z</time>
      </trkpt>
      <trkpt lat="43.44255" lon="5.84903">
        <ele>385.63</ele>
        <time>2019-03-10T10:32:26Z</time>
      </trkpt>
      <trkpt lat="43.44257" lon="5.84913">
        <ele>385.15</ele>
        <time>2019-03-10T10:32:27Z</time>
      </trkpt>
      <trkpt lat="43.44258" lon="5.84923">
        <ele>385.15</ele>
        <time>2019-03-10T10:32:28Z</time>
      </trkpt>
      <trkpt lat="43.44264" lon="5.84984">
        <ele>384.66</ele>
        <time>2019-03-10T10:32:34Z</time>
      </trkpt>
      <trkpt lat="43.44266" lon="5.84992">
        <ele>384.66</ele>
        <time>2019-03-10T10:32:35Z</time>
      </trkpt>
      <trkpt lat="43.44269" lon="5.85">
        <ele>384.66</ele>
        <time>2019-03-10T10:32:36Z</time>
      </trkpt>
      <trkpt lat="43.44275" lon="5.85015">
        <ele>384.66</ele>
        <time>2019-03-10T10:32:38Z</time>
      </trkpt>
      <trkpt lat="43.44277" lon="5.85022">
        <ele>384.66</ele>
        <time>2019-03-10T10:32:39Z</time>
      </trkpt>
      <trkpt lat="43.44281" lon="5.85036">
        <ele>384.18</ele>
        <time>2019-03-10T10:32:41Z</time>
      </trkpt>
      <trkpt lat="43.44283" lon="5.85043">
        <ele>383.7</ele>
        <time>2019-03-10T10:32:42Z</time>
      </trkpt>
      <trkpt lat="43.44293" lon="5.85068">
        <ele>381.78</ele>
        <time>2019-03-10T10:32:46Z</time>
      </trkpt>
      <trkpt lat="43.44295" lon="5.85075">
        <ele>381.78</ele>
        <time>2019-03-10T10:32:47Z</time>
      </trkpt>
      <trkpt lat="43.44297" lon="5.85082">
        <ele>381.3</ele>
        <time>2019-03-10T10:32:48Z</time>
      </trkpt>
      <trkpt lat="43.443" lon="5.85104">
        <ele>380.34</ele>
        <time>2019-03-10T10:32:52Z</time>
      </trkpt>
      <trkpt lat="43.443" lon="5.85109">
        <ele>380.34</ele>
        <time>2019-03-10T10:32:53Z</time>
      </trkpt>
      <trkpt lat="43.44301" lon="5.85115">
        <ele>379.86</ele>
        <time>2019-03-10T10:32:54Z</time>
      </trkpt>
      <trkpt lat="43.44303" lon="5.8512">
        <ele>379.38</ele>
        <time>2019-03-10T10:32:55Z</time>
      </trkpt>
      <trkpt lat="43.44304" lon="5.85126">
        <ele>379.38</ele>
        <time>2019-03-10T10:32:56Z</time>
      </trkpt>
      <trkpt lat="43.44309" lon="5.8516">
        <ele>378.9</ele>
        <time>2019-03-10T10:33:01Z</time>
      </trkpt>
      <trkpt lat="43.44311" lon="5.85167">
        <ele>377.94</ele>
        <time>2019-03-10T10:33:02Z</time>
      </trkpt>
      <trkpt lat="43.44314" lon="5.85174">
        <ele>377.94</ele>
        <time>2019-03-10T10:33:03Z</time>
      </trkpt>
      <trkpt lat="43.44319" lon="5.8518">
        <ele>376.97</ele>
        <time>2019-03-10T10:33:04Z</time>
      </trkpt>
      <trkpt lat="43.44323" lon="5.85187">
        <ele>376.97</ele>
        <time>2019-03-10T10:33:05Z</time>
      </trkpt>
      <trkpt lat="43.44338" lon="5.85207">
        <ele>374.09</ele>
        <time>2019-03-10T10:33:09Z</time>
      </trkpt>
      <trkpt lat="43.44344" lon="5.85215">
        <ele>372.65</ele>
        <time>2019-03-10T10:33:11Z</time>
      </trkpt>
      <trkpt lat="43.44352" lon="5.85225">
        <ele>371.69</ele>
        <time>2019-03-10T10:33:13Z</time>
      </trkpt>
      <trkpt lat="43.44355" lon="5.85233">
        <ele>370.73</ele>
        <time>2019-03-10T10:33:14Z</time>
      </trkpt>
      <trkpt lat="43.44384" lon="5.85308">
        <ele>367.36</ele>
        <time>2019-03-10T10:33:23Z</time>
      </trkpt>
      <trkpt lat="43.44386" lon="5.85315">
        <ele>366.88</ele>
        <time>2019-03-10T10:33:24Z</time>
      </trkpt>
      <trkpt lat="43.44396" lon="5.85375">
        <ele>363.52</ele>
        <time>2019-03-10T10:33:32Z</time>
      </trkpt>
      <trkpt lat="43.44405" lon="5.8543">
        <ele>361.11</ele>
        <time>2019-03-10T10:33:38Z</time>
      </trkpt>
      <trkpt lat="43.44406" lon="5.85438">
        <ele>360.15</ele>
        <time>2019-03-10T10:33:39Z</time>
      </trkpt>
      <trkpt lat="43.44407" lon="5.85447">
        <ele>359.67</ele>
        <time>2019-03-10T10:33:40Z</time>
      </trkpt>
      <trkpt lat="43.44419" lon="5.85496">
        <ele>356.31</ele>
        <time>2019-03-10T10:33:46Z</time>
      </trkpt>
      <trkpt lat="43.44437" lon="5.85575">
        <ele>352.94</ele>
        <time>2019-03-10T10:33:53Z</time>
      </trkpt>
      <trkpt lat="43.44446" lon="5.85607">
        <ele>349.1</ele>
        <time>2019-03-10T10:33:56Z</time>
      </trkpt>
      <trkpt lat="43.44462" lon="5.85664">
        <ele>345.25</ele>
        <time>2019-03-10T10:34:02Z</time>
      </trkpt>
      <trkpt lat="43.44474" lon="5.85691">
        <ele>342.85</ele>
        <time>2019-03-10T10:34:07Z</time>
      </trkpt>
      <trkpt lat="43.44476" lon="5.85693">
        <ele>342.85</ele>
        <time>2019-03-10T10:34:08Z</time>
      </trkpt>
      <trkpt lat="43.44479" lon="5.85697">
        <ele>342.37</ele>
        <time>2019-03-10T10:34:09Z</time>
      </trkpt>
      <trkpt lat="43.4448" lon="5.85696">
        <ele>342.85</ele>
        <time>2019-03-10T10:34:10Z</time>
      </trkpt>
      <trkpt lat="43.44481" lon="5.85693">
        <ele>342.85</ele>
        <time>2019-03-10T10:34:11Z</time>
      </trkpt>
      <trkpt lat="43.4449" lon="5.85655">
        <ele>342.37</ele>
        <time>2019-03-10T10:34:21Z</time>
      </trkpt>
      <trkpt lat="43.44492" lon="5.85651">
        <ele>342.37</ele>
        <time>2019-03-10T10:34:22Z</time>
      </trkpt>
      <trkpt lat="43.44494" lon="5.8565">
        <ele>342.37</ele>
        <time>2019-03-10T10:34:23Z</time>
      </trkpt>
      <trkpt lat="43.44508" lon="5.85647">
        <ele>345.25</ele>
        <time>2019-03-10T10:34:27Z</time>
      </trkpt>
      <trkpt lat="43.44509" lon="5.85646">
        <ele>345.73</ele>
        <time>2019-03-10T10:34:28Z</time>
      </trkpt>
      <trkpt lat="43.44512" lon="5.8564">
        <ele>346.21</ele>
        <time>2019-03-10T10:34:39Z</time>
      </trkpt>
      <trkpt lat="43.44519" lon="5.85634">
        <ele>346.21</ele>
        <time>2019-03-10T10:35:19Z</time>
      </trkpt>
      <trkpt lat="43.44521" lon="5.85632">
        <ele>344.29</ele>
        <time>2019-03-10T10:35:51Z</time>
      </trkpt>
      <trkpt lat="43.4452" lon="5.85632">
        <ele>345.73</ele>
        <time>2019-03-10T10:36:01Z</time>
      </trkpt>
      <trkpt lat="43.4452" lon="5.85633">
        <ele>345.25</ele>
        <time>2019-03-10T10:36:33Z</time>
      </trkpt>
      <trkpt lat="43.44521" lon="5.85634">
        <ele>345.25</ele>
        <time>2019-03-10T10:37:08Z</time>
      </trkpt>
      <trkpt lat="43.4452" lon="5.85632">
        <ele>344.77</ele>
        <time>2019-03-10T10:37:36Z</time>
      </trkpt>
      <trkpt lat="43.44519" lon="5.85633">
        <ele>344.77</ele>
        <time>2019-03-10T10:38:06Z</time>
      </trkpt>
      <trkpt lat="43.44517" lon="5.85633">
        <ele>344.29</ele>
        <time>2019-03-10T10:38:37Z</time>
      </trkpt>
      <trkpt lat="43.44517" lon="5.85634">
        <ele>343.81</ele>
        <time>2019-03-10T10:39:03Z</time>
      </trkpt>
      <trkpt lat="43.44518" lon="5.85633">
        <ele>343.81</ele>
        <time>2019-03-10T10:39:39Z</time>
      </trkpt>
      <trkpt lat="43.44517" lon="5.85634">
        <ele>343.81</ele>
        <time>2019-03-10T10:40:09Z</time>
      </trkpt>
      <trkpt lat="43.44516" lon="5.85636">
        <ele>343.81</ele>
        <time>2019-03-10T10:40:40Z</time>
      </trkpt>
      <trkpt lat="43.44515" lon="5.85634">
        <ele>343.33</ele>
        <time>2019-03-10T10:41:20Z</time>
      </trkpt>
      <trkpt lat="43.44517" lon="5.85635">
        <ele>343.33</ele>
        <time>2019-03-10T10:41:57Z</time>
      </trkpt>
      <trkpt lat="43.44517" lon="5.85636">
        <ele>343.81</ele>
        <time>2019-03-10T10:42:26Z</time>
      </trkpt>
      <trkpt lat="43.44517" lon="5.85637">
        <ele>343.33</ele>
        <time>2019-03-10T10:43:00Z</time>
      </trkpt>
      <trkpt lat="43.44517" lon="5.85637">
        <ele>343.33</ele>
        <time>2019-03-10T10:43:28Z</time>
      </trkpt>
      <trkpt lat="43.44517" lon="5.85636">
        <ele>343.33</ele>
        <time>2019-03-10T10:43:49Z</time>
      </trkpt>
      <trkpt lat="43.44517" lon="5.85636">
        <ele>341.89</ele>
        <time>2019-03-10T10:43:55Z</time>
      </trkpt>
      <trkpt lat="43.44516" lon="5.85635">
        <ele>342.85</ele>
        <time>2019-03-10T10:44:05Z</time>
      </trkpt>
      <trkpt lat="43.44515" lon="5.85634">
        <ele>342.85</ele>
        <time>2019-03-10T10:44:30Z</time>
      </trkpt>
      <trkpt lat="43.44515" lon="5.85634">
        <ele>341.41</ele>
        <time>2019-03-10T10:44:59Z</time>
      </trkpt>
      <trkpt lat="43.44515" lon="5.85633">
        <ele>340.92</ele>
        <time>2019-03-10T10:45:31Z</time>
      </trkpt>
      <trkpt lat="43.44515" lon="5.85633">
        <ele>340.44</ele>
        <time>2019-03-10T10:46:07Z</time>
      </trkpt>
      <trkpt lat="43.44515" lon="5.85634">
        <ele>341.41</ele>
        <time>2019-03-10T10:46:20Z</time>
      </trkpt>
      <trkpt lat="43.44515" lon="5.85635">
        <ele>339.96</ele>
        <time>2019-03-10T10:46:38Z</time>
      </trkpt>
      <trkpt lat="43.44515" lon="5.85635">
        <ele>340.92</ele>
        <time>2019-03-10T10:46:41Z</time>
      </trkpt>
      <trkpt lat="43.44516" lon="5.85634">
        <ele>340.92</ele>
        <time>2019-03-10T10:47:16Z</time>
      </trkpt>
      <trkpt lat="43.44516" lon="5.85636">
        <ele>340.44</ele>
        <time>2019-03-10T10:47:57Z</time>
      </trkpt>
      <trkpt lat="43.44516" lon="5.85636">
        <ele>340.44</ele>
        <time>2019-03-10T10:48:37Z</time>
      </trkpt>
      <trkpt lat="43.44517" lon="5.85634">
        <ele>340.44</ele>
        <time>2019-03-10T10:49:23Z</time>
      </trkpt>
      <trkpt lat="43.44516" lon="5.85636">
        <ele>340.44</ele>
        <time>2019-03-10T10:49:59Z</time>
      </trkpt>
      <trkpt lat="43.44516" lon="5.85636">
        <ele>340.44</ele>
        <time>2019-03-10T10:50:18Z</time>
      </trkpt>
      <trkpt lat="43.44516" lon="5.85636">
        <ele>340.44</ele>
        <time>2019-03-10T10:50:48Z</time>
      </trkpt>
      <trkpt lat="43.44517" lon="5.85634">
        <ele>339.96</ele>
        <time>2019-03-10T10:51:28Z</time>
      </trkpt>
      <trkpt lat="43.44517" lon="5.85632">
        <ele>338.52</ele>
        <time>2019-03-10T10:51:46Z</time>
      </trkpt>
      <trkpt lat="43.44515" lon="5.85632">
        <ele>339.48</ele>
        <time>2019-03-10T10:52:16Z</time>
      </trkpt>
      <trkpt lat="43.44511" lon="5.85634">
        <ele>338.04</ele>
        <time>2019-03-10T10:52:19Z</time>
      </trkpt>
      <trkpt lat="43.4451" lon="5.85634">
        <ele>337.56</ele>
        <time>2019-03-10T10:52:20Z</time>
      </trkpt>
      <trkpt lat="43.44508" lon="5.85633">
        <ele>336.6</ele>
        <time>2019-03-10T10:52:21Z</time>
      </trkpt>
      <trkpt lat="43.44505" lon="5.85634">
        <ele>334.68</ele>
        <time>2019-03-10T10:52:24Z</time>
      </trkpt>
      <trkpt lat="43.44504" lon="5.85636">
        <ele>334.68</ele>
        <time>2019-03-10T10:52:25Z</time>
      </trkpt>
      <trkpt lat="43.44502" lon="5.8564">
        <ele>333.71</ele>
        <time>2019-03-10T10:52:26Z</time>
      </trkpt>
      <trkpt lat="43.44501" lon="5.85644">
        <ele>333.71</ele>
        <time>2019-03-10T10:52:27Z</time>
      </trkpt>
      <trkpt lat="43.445" lon="5.85648">
        <ele>333.71</ele>
        <time>2019-03-10T10:52:28Z</time>
      </trkpt>
      <trkpt lat="43.44499" lon="5.85652">
        <ele>333.71</ele>
        <time>2019-03-10T10:52:29Z</time>
      </trkpt>
      <trkpt lat="43.44498" lon="5.85657">
        <ele>333.71</ele>
        <time>2019-03-10T10:52:30Z</time>
      </trkpt>
      <trkpt lat="43.44495" lon="5.85703">
        <ele>333.71</ele>
        <time>2019-03-10T10:52:39Z</time>
      </trkpt>
      <trkpt lat="43.44497" lon="5.8571">
        <ele>333.71</ele>
        <time>2019-03-10T10:52:40Z</time>
      </trkpt>
      <trkpt lat="43.445" lon="5.85718">
        <ele>333.23</ele>
        <time>2019-03-10T10:52:41Z</time>
      </trkpt>
      <trkpt lat="43.44503" lon="5.85725">
        <ele>333.23</ele>
        <time>2019-03-10T10:52:42Z</time>
      </trkpt>
      <trkpt lat="43.44508" lon="5.85731">
        <ele>332.75</ele>
        <time>2019-03-10T10:52:43Z</time>
      </trkpt>
      <trkpt lat="43.44523" lon="5.85752">
        <ele>331.31</ele>
        <time>2019-03-10T10:52:46Z</time>
      </trkpt>
      <trkpt lat="43.44547" lon="5.85786">
        <ele>331.31</ele>
        <time>2019-03-10T10:52:51Z</time>
      </trkpt>
      <trkpt lat="43.44554" lon="5.85794">
        <ele>331.31</ele>
        <time>2019-03-10T10:52:52Z</time>
      </trkpt>
      <trkpt lat="43.44558" lon="5.85803">
        <ele>331.31</ele>
        <time>2019-03-10T10:52:53Z</time>
      </trkpt>
      <trkpt lat="43.44563" lon="5.85813">
        <ele>331.31</ele>
        <time>2019-03-10T10:52:54Z</time>
      </trkpt>
      <trkpt lat="43.44568" lon="5.85824">
        <ele>330.35</ele>
        <time>2019-03-10T10:52:55Z</time>
      </trkpt>
      <trkpt lat="43.44624" lon="5.85933">
        <ele>328.43</ele>
        <time>2019-03-10T10:53:06Z</time>
      </trkpt>
      <trkpt lat="43.44644" lon="5.85963">
        <ele>327.95</ele>
        <time>2019-03-10T10:53:10Z</time>
      </trkpt>
      <trkpt lat="43.44652" lon="5.85972">
        <ele>326.99</ele>
        <time>2019-03-10T10:53:12Z</time>
      </trkpt>
      <trkpt lat="43.44654" lon="5.85978">
        <ele>326.99</ele>
        <time>2019-03-10T10:53:13Z</time>
      </trkpt>
      <trkpt lat="43.44655" lon="5.85987">
        <ele>326.99</ele>
        <time>2019-03-10T10:53:14Z</time>
      </trkpt>
      <trkpt lat="43.44655" lon="5.85991">
        <ele>327.47</ele>
        <time>2019-03-10T10:53:15Z</time>
      </trkpt>
      <trkpt lat="43.44652" lon="5.85998">
        <ele>326.99</ele>
        <time>2019-03-10T10:53:16Z</time>
      </trkpt>
      <trkpt lat="43.44646" lon="5.86013">
        <ele>326.99</ele>
        <time>2019-03-10T10:53:18Z</time>
      </trkpt>
      <trkpt lat="43.4464" lon="5.86019">
        <ele>326.99</ele>
        <time>2019-03-10T10:53:19Z</time>
      </trkpt>
      <trkpt lat="43.44636" lon="5.86021">
        <ele>326.99</ele>
        <time>2019-03-10T10:53:20Z</time>
      </trkpt>
      <trkpt lat="43.4463" lon="5.8602">
        <ele>326.99</ele>
        <time>2019-03-10T10:53:21Z</time>
      </trkpt>
      <trkpt lat="43.44626" lon="5.86019">
        <ele>326.99</ele>
        <time>2019-03-10T10:53:22Z</time>
      </trkpt>
      <trkpt lat="43.4462" lon="5.86017">
        <ele>326.99</ele>
        <time>2019-03-10T10:53:23Z</time>
      </trkpt>
      <trkpt lat="43.44587" lon="5.86007">
        <ele>329.39</ele>
        <time>2019-03-10T10:53:29Z</time>
      </trkpt>
      <trkpt lat="43.44531" lon="5.85986">
        <ele>331.79</ele>
        <time>2019-03-10T10:53:39Z</time>
      </trkpt>
      <trkpt lat="43.44525" lon="5.85984">
        <ele>330.83</ele>
        <time>2019-03-10T10:53:40Z</time>
      </trkpt>
      <trkpt lat="43.44488" lon="5.8597">
        <ele>332.27</ele>
        <time>2019-03-10T10:53:47Z</time>
      </trkpt>
      <trkpt lat="43.44448" lon="5.85956">
        <ele>332.75</ele>
        <time>2019-03-10T10:54:00Z</time>
      </trkpt>
      <trkpt lat="43.44446" lon="5.85956">
        <ele>333.23</ele>
        <time>2019-03-10T10:54:23Z</time>
      </trkpt>
      <trkpt lat="43.44447" lon="5.85957">
        <ele>333.23</ele>
        <time>2019-03-10T10:54:53Z</time>
      </trkpt>
      <trkpt lat="43.44445" lon="5.85956">
        <ele>333.23</ele>
        <time>2019-03-10T10:54:54Z</time>
      </trkpt>
      <trkpt lat="43.44443" lon="5.85956">
        <ele>332.75</ele>
        <time>2019-03-10T10:54:55Z</time>
      </trkpt>
      <trkpt lat="43.44436" lon="5.85953">
        <ele>332.75</ele>
        <time>2019-03-10T10:54:57Z</time>
      </trkpt>
      <trkpt lat="43.44432" lon="5.85953">
        <ele>333.23</ele>
        <time>2019-03-10T10:54:58Z</time>
      </trkpt>
      <trkpt lat="43.44427" lon="5.85955">
        <ele>333.71</ele>
        <time>2019-03-10T10:54:59Z</time>
      </trkpt>
      <trkpt lat="43.44423" lon="5.8596">
        <ele>334.2</ele>
        <time>2019-03-10T10:55:00Z</time>
      </trkpt>
      <trkpt lat="43.44421" lon="5.85966">
        <ele>334.2</ele>
        <time>2019-03-10T10:55:01Z</time>
      </trkpt>
      <trkpt lat="43.44418" lon="5.85973">
        <ele>334.2</ele>
        <time>2019-03-10T10:55:02Z</time>
      </trkpt>
      <trkpt lat="43.44417" lon="5.8598">
        <ele>334.2</ele>
        <time>2019-03-10T10:55:03Z</time>
      </trkpt>
      <trkpt lat="43.44405" lon="5.86026">
        <ele>332.75</ele>
        <time>2019-03-10T10:55:09Z</time>
      </trkpt>
      <trkpt lat="43.44376" lon="5.86115">
        <ele>335.16</ele>
        <time>2019-03-10T10:55:25Z</time>
      </trkpt>
      <trkpt lat="43.44336" lon="5.86171">
        <ele>338.04</ele>
        <time>2019-03-10T10:55:39Z</time>
      </trkpt>
      <trkpt lat="43.4427" lon="5.86208">
        <ele>339.48</ele>
        <time>2019-03-10T10:55:56Z</time>
      </trkpt>
      <trkpt lat="43.44184" lon="5.86241">
        <ele>339.96</ele>
        <time>2019-03-10T10:56:14Z</time>
      </trkpt>
      <trkpt lat="43.44139" lon="5.86257">
        <ele>341.41</ele>
        <time>2019-03-10T10:56:23Z</time>
      </trkpt>
      <trkpt lat="43.4413" lon="5.8626">
        <ele>339.96</ele>
        <time>2019-03-10T10:56:25Z</time>
      </trkpt>
      <trkpt lat="43.4406" lon="5.86287">
        <ele>341.89</ele>
        <time>2019-03-10T10:56:42Z</time>
      </trkpt>
      <trkpt lat="43.44046" lon="5.8629">
        <ele>341.89</ele>
        <time>2019-03-10T10:56:46Z</time>
      </trkpt>
      <trkpt lat="43.44043" lon="5.86288">
        <ele>342.37</ele>
        <time>2019-03-10T10:56:47Z</time>
      </trkpt>
      <trkpt lat="43.4404" lon="5.86283">
        <ele>342.85</ele>
        <time>2019-03-10T10:56:48Z</time>
      </trkpt>
      <trkpt lat="43.4404" lon="5.8628">
        <ele>342.37</ele>
        <time>2019-03-10T10:56:49Z</time>
      </trkpt>
      <trkpt lat="43.4404" lon="5.86277">
        <ele>343.33</ele>
        <time>2019-03-10T10:56:50Z</time>
      </trkpt>
      <trkpt lat="43.44039" lon="5.86273">
        <ele>343.33</ele>
        <time>2019-03-10T10:56:51Z</time>
      </trkpt>
      <trkpt lat="43.44036" lon="5.86233">
        <ele>346.21</ele>
        <time>2019-03-10T10:57:01Z</time>
      </trkpt>
      <trkpt lat="43.4403" lon="5.86188">
        <ele>349.1</ele>
        <time>2019-03-10T10:57:13Z</time>
      </trkpt>
      <trkpt lat="43.44028" lon="5.86169">
        <ele>349.58</ele>
        <time>2019-03-10T10:57:19Z</time>
      </trkpt>
      <trkpt lat="43.44025" lon="5.86166">
        <ele>349.58</ele>
        <time>2019-03-10T10:57:20Z</time>
      </trkpt>
      <trkpt lat="43.44024" lon="5.86166">
        <ele>349.58</ele>
        <time>2019-03-10T10:57:21Z</time>
      </trkpt>
      <trkpt lat="43.44022" lon="5.86165">
        <ele>351.02</ele>
        <time>2019-03-10T10:57:22Z</time>
      </trkpt>
      <trkpt lat="43.4402" lon="5.86165">
        <ele>351.02</ele>
        <time>2019-03-10T10:57:23Z</time>
      </trkpt>
      <trkpt lat="43.43995" lon="5.86155">
        <ele>350.54</ele>
        <time>2019-03-10T10:57:34Z</time>
      </trkpt>
      <trkpt lat="43.43988" lon="5.86131">
        <ele>352.46</ele>
        <time>2019-03-10T10:57:42Z</time>
      </trkpt>
      <trkpt lat="43.43981" lon="5.86117">
        <ele>353.42</ele>
        <time>2019-03-10T10:57:48Z</time>
      </trkpt>
      <trkpt lat="43.43981" lon="5.86116">
        <ele>353.42</ele>
        <time>2019-03-10T10:57:49Z</time>
      </trkpt>
      <trkpt lat="43.4398" lon="5.86115">
        <ele>352.46</ele>
        <time>2019-03-10T10:57:50Z</time>
      </trkpt>
      <trkpt lat="43.43979" lon="5.86113">
        <ele>352.46</ele>
        <time>2019-03-10T10:57:51Z</time>
      </trkpt>
      <trkpt lat="43.43978" lon="5.86111">
        <ele>351.98</ele>
        <time>2019-03-10T10:57:52Z</time>
      </trkpt>
      <trkpt lat="43.43971" lon="5.86098">
        <ele>353.42</ele>
        <time>2019-03-10T10:57:57Z</time>
      </trkpt>
      <trkpt lat="43.43969" lon="5.86091">
        <ele>353.9</ele>
        <time>2019-03-10T10:58:00Z</time>
      </trkpt>
      <trkpt lat="43.4397" lon="5.86089">
        <ele>353.9</ele>
        <time>2019-03-10T10:58:01Z</time>
      </trkpt>
      <trkpt lat="43.43971" lon="5.86088">
        <ele>353.9</ele>
        <time>2019-03-10T10:58:02Z</time>
      </trkpt>
      <trkpt lat="43.43973" lon="5.86085">
        <ele>353.9</ele>
        <time>2019-03-10T10:58:03Z</time>
      </trkpt>
      <trkpt lat="43.43973" lon="5.86084">
        <ele>353.9</ele>
        <time>2019-03-10T10:58:04Z</time>
      </trkpt>
      <trkpt lat="43.43974" lon="5.86081">
        <ele>353.9</ele>
        <time>2019-03-10T10:58:05Z</time>
      </trkpt>
      <trkpt lat="43.43974" lon="5.86078">
        <ele>353.9</ele>
        <time>2019-03-10T10:58:06Z</time>
      </trkpt>
      <trkpt lat="43.43975" lon="5.86068">
        <ele>354.38</ele>
        <time>2019-03-10T10:58:10Z</time>
      </trkpt>
      <trkpt lat="43.43975" lon="5.86037">
        <ele>355.34</ele>
        <time>2019-03-10T10:58:23Z</time>
      </trkpt>
      <trkpt lat="43.43976" lon="5.86026">
        <ele>355.34</ele>
        <time>2019-03-10T10:59:03Z</time>
      </trkpt>
      <trkpt lat="43.43979" lon="5.86024">
        <ele>354.86</ele>
        <time>2019-03-10T10:59:40Z</time>
      </trkpt>
      <trkpt lat="43.43976" lon="5.86024">
        <ele>354.86</ele>
        <time>2019-03-10T11:00:08Z</time>
      </trkpt>
      <trkpt lat="43.43976" lon="5.86024">
        <ele>353.42</ele>
        <time>2019-03-10T11:00:11Z</time>
      </trkpt>
      <trkpt lat="43.43976" lon="5.86029">
        <ele>354.38</ele>
        <time>2019-03-10T11:00:42Z</time>
      </trkpt>
      <trkpt lat="43.43972" lon="5.86029">
        <ele>354.38</ele>
        <time>2019-03-10T11:00:54Z</time>
      </trkpt>
      <trkpt lat="43.43971" lon="5.86031">
        <ele>355.34</ele>
        <time>2019-03-10T11:01:18Z</time>
      </trkpt>
      <trkpt lat="43.43973" lon="5.86035">
        <ele>353.9</ele>
        <time>2019-03-10T11:01:41Z</time>
      </trkpt>
      <trkpt lat="43.43973" lon="5.86035">
        <ele>353.9</ele>
        <time>2019-03-10T11:01:42Z</time>
      </trkpt>
    </trkseg>
  </trk>
</gpx>